<?xml version="1.0" encoding="UTF-8" standalone="no" ?>
<gpx xmlns="http://www.topografix.com/GPX/1/1" xmlns:xsi="http://www.w3.org/2001/XMLSchema-instance" xsi:schemaLocation="http://www.topografix.com/GPX/1/1 http://www.topografix.com/GPX/1/1/gpx.xsd" version="1.1" creator="VisuGPX - https://www.visugpx.com">
  <metadata>
    <name>Les Villages du Coeur du Trièves</name>
  </metadata>
  <trk>
    <name><![CDATA[Circuit 2023 - 2-15901621]]></name>
    <trkseg>
      <trkpt lat="44.8169" lon="5.75052">
        <ele>778</ele>
        <time>2022-12-13T10:03:31Z</time>
      </trkpt>
      <trkpt lat="44.81691" lon="5.75052">
        <ele>778</ele>
        <time>2022-12-13T10:03:31Z</time>
      </trkpt>
      <trkpt lat="44.81687" lon="5.75042">
        <ele>777</ele>
        <time>2022-12-13T10:03:33Z</time>
      </trkpt>
      <trkpt lat="44.81672" lon="5.74915">
        <ele>773</ele>
        <time>2022-12-13T10:03:49Z</time>
      </trkpt>
      <trkpt lat="44.81669" lon="5.74771">
        <ele>768</ele>
        <time>2022-12-13T10:04:07Z</time>
      </trkpt>
      <trkpt lat="44.81666" lon="5.74759">
        <ele>768</ele>
        <time>2022-12-13T10:04:09Z</time>
      </trkpt>
      <trkpt lat="44.8166" lon="5.74748">
        <ele>768</ele>
        <time>2022-12-13T10:04:10Z</time>
      </trkpt>
      <trkpt lat="44.81658" lon="5.74733">
        <ele>767</ele>
        <time>2022-12-13T10:04:12Z</time>
      </trkpt>
      <trkpt lat="44.81638" lon="5.74517">
        <ele>761</ele>
        <time>2022-12-13T10:04:40Z</time>
      </trkpt>
      <trkpt lat="44.81638" lon="5.74496">
        <ele>760</ele>
        <time>2022-12-13T10:04:42Z</time>
      </trkpt>
      <trkpt lat="44.81642" lon="5.74456">
        <ele>757</ele>
        <time>2022-12-13T10:04:48Z</time>
      </trkpt>
      <trkpt lat="44.81656" lon="5.74425">
        <ele>754</ele>
        <time>2022-12-13T10:04:52Z</time>
      </trkpt>
      <trkpt lat="44.8167" lon="5.74403">
        <ele>752</ele>
        <time>2022-12-13T10:04:56Z</time>
      </trkpt>
      <trkpt lat="44.81695" lon="5.74378">
        <ele>749</ele>
        <time>2022-12-13T10:05:01Z</time>
      </trkpt>
      <trkpt lat="44.81711" lon="5.74368">
        <ele>749</ele>
        <time>2022-12-13T10:05:05Z</time>
      </trkpt>
      <trkpt lat="44.81737" lon="5.74365">
        <ele>749</ele>
        <time>2022-12-13T10:05:09Z</time>
      </trkpt>
      <trkpt lat="44.81776" lon="5.74373">
        <ele>748</ele>
        <time>2022-12-13T10:05:16Z</time>
      </trkpt>
      <trkpt lat="44.81813" lon="5.74382">
        <ele>747</ele>
        <time>2022-12-13T10:05:23Z</time>
      </trkpt>
      <trkpt lat="44.81821" lon="5.74383">
        <ele>747</ele>
        <time>2022-12-13T10:05:24Z</time>
      </trkpt>
      <trkpt lat="44.81878" lon="5.74376">
        <ele>752</ele>
        <time>2022-12-13T10:05:34Z</time>
      </trkpt>
      <trkpt lat="44.81888" lon="5.74373">
        <ele>754</ele>
        <time>2022-12-13T10:05:36Z</time>
      </trkpt>
      <trkpt lat="44.81896" lon="5.74367">
        <ele>755</ele>
        <time>2022-12-13T10:05:38Z</time>
      </trkpt>
      <trkpt lat="44.81903" lon="5.74357">
        <ele>757</ele>
        <time>2022-12-13T10:05:40Z</time>
      </trkpt>
      <trkpt lat="44.81906" lon="5.74339">
        <ele>758</ele>
        <time>2022-12-13T10:05:42Z</time>
      </trkpt>
      <trkpt lat="44.81905" lon="5.74324">
        <ele>759</ele>
        <time>2022-12-13T10:05:44Z</time>
      </trkpt>
      <trkpt lat="44.819" lon="5.74304">
        <ele>759</ele>
        <time>2022-12-13T10:05:47Z</time>
      </trkpt>
      <trkpt lat="44.81882" lon="5.7425">
        <ele>759</ele>
        <time>2022-12-13T10:05:54Z</time>
      </trkpt>
      <trkpt lat="44.81879" lon="5.74234">
        <ele>757</ele>
        <time>2022-12-13T10:05:56Z</time>
      </trkpt>
      <trkpt lat="44.81879" lon="5.74221">
        <ele>757</ele>
        <time>2022-12-13T10:05:58Z</time>
      </trkpt>
      <trkpt lat="44.81883" lon="5.74208">
        <ele>757</ele>
        <time>2022-12-13T10:06:00Z</time>
      </trkpt>
      <trkpt lat="44.81966" lon="5.74092">
        <ele>766</ele>
        <time>2022-12-13T10:06:20Z</time>
      </trkpt>
      <trkpt lat="44.81974" lon="5.74064">
        <ele>766</ele>
        <time>2022-12-13T10:06:24Z</time>
      </trkpt>
      <trkpt lat="44.8199" lon="5.73947">
        <ele>768</ele>
        <time>2022-12-13T10:06:39Z</time>
      </trkpt>
      <trkpt lat="44.81996" lon="5.73927">
        <ele>768</ele>
        <time>2022-12-13T10:06:42Z</time>
      </trkpt>
      <trkpt lat="44.82007" lon="5.73908">
        <ele>770</ele>
        <time>2022-12-13T10:06:45Z</time>
      </trkpt>
      <trkpt lat="44.82018" lon="5.73892">
        <ele>771</ele>
        <time>2022-12-13T10:06:48Z</time>
      </trkpt>
      <trkpt lat="44.82034" lon="5.73877">
        <ele>772</ele>
        <time>2022-12-13T10:06:51Z</time>
      </trkpt>
      <trkpt lat="44.82035" lon="5.73865">
        <ele>772</ele>
        <time>2022-12-13T10:06:53Z</time>
      </trkpt>
      <trkpt lat="44.82041" lon="5.73856">
        <ele>772</ele>
        <time>2022-12-13T10:06:54Z</time>
      </trkpt>
      <trkpt lat="44.82072" lon="5.73812">
        <ele>772</ele>
        <time>2022-12-13T10:07:02Z</time>
      </trkpt>
      <trkpt lat="44.82133" lon="5.73726">
        <ele>768</ele>
        <time>2022-12-13T10:07:18Z</time>
      </trkpt>
      <trkpt lat="44.82209" lon="5.73494">
        <ele>766</ele>
        <time>2022-12-13T10:07:50Z</time>
      </trkpt>
      <trkpt lat="44.82243" lon="5.73093">
        <ele>769</ele>
        <time>2022-12-13T10:08:41Z</time>
      </trkpt>
      <trkpt lat="44.82209" lon="5.72873">
        <ele>774</ele>
        <time>2022-12-13T10:09:09Z</time>
      </trkpt>
      <trkpt lat="44.8216" lon="5.7282">
        <ele>773</ele>
        <time>2022-12-13T10:09:20Z</time>
      </trkpt>
      <trkpt lat="44.82083" lon="5.72799">
        <ele>770</ele>
        <time>2022-12-13T10:09:34Z</time>
      </trkpt>
      <trkpt lat="44.8199" lon="5.72749">
        <ele>773</ele>
        <time>2022-12-13T10:09:52Z</time>
      </trkpt>
      <trkpt lat="44.81899" lon="5.72646">
        <ele>780</ele>
        <time>2022-12-13T10:10:13Z</time>
      </trkpt>
      <trkpt lat="44.81805" lon="5.72529">
        <ele>774</ele>
        <time>2022-12-13T10:10:35Z</time>
      </trkpt>
      <trkpt lat="44.81848" lon="5.72353">
        <ele>787</ele>
        <time>2022-12-13T10:10:58Z</time>
      </trkpt>
      <trkpt lat="44.81835" lon="5.72264">
        <ele>790</ele>
        <time>2022-12-13T10:11:10Z</time>
      </trkpt>
      <trkpt lat="44.81809" lon="5.72218">
        <ele>786</ele>
        <time>2022-12-13T10:11:17Z</time>
      </trkpt>
      <trkpt lat="44.81795" lon="5.72164">
        <ele>788</ele>
        <time>2022-12-13T10:11:25Z</time>
      </trkpt>
      <trkpt lat="44.81801" lon="5.72134">
        <ele>798</ele>
        <time>2022-12-13T10:11:29Z</time>
      </trkpt>
      <trkpt lat="44.81722" lon="5.72025">
        <ele>792</ele>
        <time>2022-12-13T10:11:48Z</time>
      </trkpt>
      <trkpt lat="44.81719" lon="5.72015">
        <ele>794</ele>
        <time>2022-12-13T10:11:50Z</time>
      </trkpt>
      <trkpt lat="44.8169" lon="5.71926">
        <ele>793</ele>
        <time>2022-12-13T10:12:02Z</time>
      </trkpt>
      <trkpt lat="44.81688" lon="5.719">
        <ele>793</ele>
        <time>2022-12-13T10:12:05Z</time>
      </trkpt>
      <trkpt lat="44.81692" lon="5.71868">
        <ele>793</ele>
        <time>2022-12-13T10:12:09Z</time>
      </trkpt>
      <trkpt lat="44.81718" lon="5.71761">
        <ele>799</ele>
        <time>2022-12-13T10:12:24Z</time>
      </trkpt>
      <trkpt lat="44.8172" lon="5.71737">
        <ele>801</ele>
        <time>2022-12-13T10:12:27Z</time>
      </trkpt>
      <trkpt lat="44.81696" lon="5.71625">
        <ele>806</ele>
        <time>2022-12-13T10:12:41Z</time>
      </trkpt>
      <trkpt lat="44.81683" lon="5.71596">
        <ele>806</ele>
        <time>2022-12-13T10:12:46Z</time>
      </trkpt>
      <trkpt lat="44.81664" lon="5.71576">
        <ele>804</ele>
        <time>2022-12-13T10:12:50Z</time>
      </trkpt>
      <trkpt lat="44.81635" lon="5.7156">
        <ele>801</ele>
        <time>2022-12-13T10:12:56Z</time>
      </trkpt>
      <trkpt lat="44.81627" lon="5.7155">
        <ele>800</ele>
        <time>2022-12-13T10:12:57Z</time>
      </trkpt>
      <trkpt lat="44.81625" lon="5.71535">
        <ele>799</ele>
        <time>2022-12-13T10:12:59Z</time>
      </trkpt>
      <trkpt lat="44.81632" lon="5.71512">
        <ele>800</ele>
        <time>2022-12-13T10:13:03Z</time>
      </trkpt>
      <trkpt lat="44.81658" lon="5.71453">
        <ele>799</ele>
        <time>2022-12-13T10:13:11Z</time>
      </trkpt>
      <trkpt lat="44.81668" lon="5.71436">
        <ele>799</ele>
        <time>2022-12-13T10:13:14Z</time>
      </trkpt>
      <trkpt lat="44.81695" lon="5.71408">
        <ele>800</ele>
        <time>2022-12-13T10:13:20Z</time>
      </trkpt>
      <trkpt lat="44.81703" lon="5.71396">
        <ele>801</ele>
        <time>2022-12-13T10:13:22Z</time>
      </trkpt>
      <trkpt lat="44.81722" lon="5.71324">
        <ele>801</ele>
        <time>2022-12-13T10:13:32Z</time>
      </trkpt>
      <trkpt lat="44.81718" lon="5.71294">
        <ele>802</ele>
        <time>2022-12-13T10:13:36Z</time>
      </trkpt>
      <trkpt lat="44.81707" lon="5.71266">
        <ele>801</ele>
        <time>2022-12-13T10:13:40Z</time>
      </trkpt>
      <trkpt lat="44.81689" lon="5.71236">
        <ele>802</ele>
        <time>2022-12-13T10:13:45Z</time>
      </trkpt>
      <trkpt lat="44.8167" lon="5.71218">
        <ele>802</ele>
        <time>2022-12-13T10:13:49Z</time>
      </trkpt>
      <trkpt lat="44.81561" lon="5.71161">
        <ele>791</ele>
        <time>2022-12-13T10:14:09Z</time>
      </trkpt>
      <trkpt lat="44.81542" lon="5.71144">
        <ele>788</ele>
        <time>2022-12-13T10:14:13Z</time>
      </trkpt>
      <trkpt lat="44.81534" lon="5.71133">
        <ele>787</ele>
        <time>2022-12-13T10:14:15Z</time>
      </trkpt>
      <trkpt lat="44.81526" lon="5.71117">
        <ele>787</ele>
        <time>2022-12-13T10:14:18Z</time>
      </trkpt>
      <trkpt lat="44.81512" lon="5.71078">
        <ele>788</ele>
        <time>2022-12-13T10:14:23Z</time>
      </trkpt>
      <trkpt lat="44.81509" lon="5.71039">
        <ele>788</ele>
        <time>2022-12-13T10:14:28Z</time>
      </trkpt>
      <trkpt lat="44.81513" lon="5.70913">
        <ele>787</ele>
        <time>2022-12-13T10:14:44Z</time>
      </trkpt>
      <trkpt lat="44.81522" lon="5.70819">
        <ele>785</ele>
        <time>2022-12-13T10:14:56Z</time>
      </trkpt>
      <trkpt lat="44.81528" lon="5.70745">
        <ele>782</ele>
        <time>2022-12-13T10:15:06Z</time>
      </trkpt>
      <trkpt lat="44.81527" lon="5.70721">
        <ele>782</ele>
        <time>2022-12-13T10:15:09Z</time>
      </trkpt>
      <trkpt lat="44.81524" lon="5.70698">
        <ele>780</ele>
        <time>2022-12-13T10:15:12Z</time>
      </trkpt>
      <trkpt lat="44.81519" lon="5.70679">
        <ele>779</ele>
        <time>2022-12-13T10:15:14Z</time>
      </trkpt>
      <trkpt lat="44.8151" lon="5.70663">
        <ele>777</ele>
        <time>2022-12-13T10:15:17Z</time>
      </trkpt>
      <trkpt lat="44.81474" lon="5.70627">
        <ele>765</ele>
        <time>2022-12-13T10:15:25Z</time>
      </trkpt>
      <trkpt lat="44.81471" lon="5.70612">
        <ele>763</ele>
        <time>2022-12-13T10:15:27Z</time>
      </trkpt>
      <trkpt lat="44.81473" lon="5.70604">
        <ele>764</ele>
        <time>2022-12-13T10:15:28Z</time>
      </trkpt>
      <trkpt lat="44.81481" lon="5.70594">
        <ele>766</ele>
        <time>2022-12-13T10:15:30Z</time>
      </trkpt>
      <trkpt lat="44.81585" lon="5.70505">
        <ele>766</ele>
        <time>2022-12-13T10:15:51Z</time>
      </trkpt>
      <trkpt lat="44.81595" lon="5.70481">
        <ele>764</ele>
        <time>2022-12-13T10:15:55Z</time>
      </trkpt>
      <trkpt lat="44.81599" lon="5.70458">
        <ele>762</ele>
        <time>2022-12-13T10:15:58Z</time>
      </trkpt>
      <trkpt lat="44.81599" lon="5.70418">
        <ele>759</ele>
        <time>2022-12-13T10:16:03Z</time>
      </trkpt>
      <trkpt lat="44.81593" lon="5.70378">
        <ele>758</ele>
        <time>2022-12-13T10:16:08Z</time>
      </trkpt>
      <trkpt lat="44.81581" lon="5.7033">
        <ele>758</ele>
        <time>2022-12-13T10:16:14Z</time>
      </trkpt>
      <trkpt lat="44.81566" lon="5.70285">
        <ele>753</ele>
        <time>2022-12-13T10:16:21Z</time>
      </trkpt>
      <trkpt lat="44.81562" lon="5.7026">
        <ele>751</ele>
        <time>2022-12-13T10:16:24Z</time>
      </trkpt>
      <trkpt lat="44.81565" lon="5.7021">
        <ele>748</ele>
        <time>2022-12-13T10:16:30Z</time>
      </trkpt>
      <trkpt lat="44.81578" lon="5.70143">
        <ele>743</ele>
        <time>2022-12-13T10:16:39Z</time>
      </trkpt>
      <trkpt lat="44.81583" lon="5.70137">
        <ele>743</ele>
        <time>2022-12-13T10:16:40Z</time>
      </trkpt>
      <trkpt lat="44.81591" lon="5.70137">
        <ele>741</ele>
        <time>2022-12-13T10:16:42Z</time>
      </trkpt>
      <trkpt lat="44.81595" lon="5.70144">
        <ele>741</ele>
        <time>2022-12-13T10:16:43Z</time>
      </trkpt>
      <trkpt lat="44.81633" lon="5.70229">
        <ele>744</ele>
        <time>2022-12-13T10:16:55Z</time>
      </trkpt>
      <trkpt lat="44.8165" lon="5.70278">
        <ele>748</ele>
        <time>2022-12-13T10:17:02Z</time>
      </trkpt>
      <trkpt lat="44.81668" lon="5.70307">
        <ele>748</ele>
        <time>2022-12-13T10:17:07Z</time>
      </trkpt>
      <trkpt lat="44.81673" lon="5.70323">
        <ele>748</ele>
        <time>2022-12-13T10:17:09Z</time>
      </trkpt>
      <trkpt lat="44.81704" lon="5.70444">
        <ele>748</ele>
        <time>2022-12-13T10:17:26Z</time>
      </trkpt>
      <trkpt lat="44.81712" lon="5.70457">
        <ele>747</ele>
        <time>2022-12-13T10:17:28Z</time>
      </trkpt>
      <trkpt lat="44.81722" lon="5.70465">
        <ele>745</ele>
        <time>2022-12-13T10:17:30Z</time>
      </trkpt>
      <trkpt lat="44.81741" lon="5.70476">
        <ele>741</ele>
        <time>2022-12-13T10:17:33Z</time>
      </trkpt>
      <trkpt lat="44.81752" lon="5.70485">
        <ele>740</ele>
        <time>2022-12-13T10:17:36Z</time>
      </trkpt>
      <trkpt lat="44.81777" lon="5.70513">
        <ele>741</ele>
        <time>2022-12-13T10:17:41Z</time>
      </trkpt>
      <trkpt lat="44.81823" lon="5.7054">
        <ele>737</ele>
        <time>2022-12-13T10:17:50Z</time>
      </trkpt>
      <trkpt lat="44.81833" lon="5.70539">
        <ele>734</ele>
        <time>2022-12-13T10:17:52Z</time>
      </trkpt>
      <trkpt lat="44.81843" lon="5.70533">
        <ele>733</ele>
        <time>2022-12-13T10:17:54Z</time>
      </trkpt>
      <trkpt lat="44.81861" lon="5.70505">
        <ele>726</ele>
        <time>2022-12-13T10:17:59Z</time>
      </trkpt>
      <trkpt lat="44.81877" lon="5.705">
        <ele>725</ele>
        <time>2022-12-13T10:18:02Z</time>
      </trkpt>
      <trkpt lat="44.81961" lon="5.70493">
        <ele>727</ele>
        <time>2022-12-13T10:18:17Z</time>
      </trkpt>
      <trkpt lat="44.81983" lon="5.70489">
        <ele>729</ele>
        <time>2022-12-13T10:18:21Z</time>
      </trkpt>
      <trkpt lat="44.81993" lon="5.70484">
        <ele>729</ele>
        <time>2022-12-13T10:18:22Z</time>
      </trkpt>
      <trkpt lat="44.81994" lon="5.70475">
        <ele>728</ele>
        <time>2022-12-13T10:18:24Z</time>
      </trkpt>
      <trkpt lat="44.81992" lon="5.7046">
        <ele>727</ele>
        <time>2022-12-13T10:18:26Z</time>
      </trkpt>
      <trkpt lat="44.81981" lon="5.70395">
        <ele>723</ele>
        <time>2022-12-13T10:18:34Z</time>
      </trkpt>
      <trkpt lat="44.81975" lon="5.70379">
        <ele>722</ele>
        <time>2022-12-13T10:18:36Z</time>
      </trkpt>
      <trkpt lat="44.8196" lon="5.70312">
        <ele>721</ele>
        <time>2022-12-13T10:18:45Z</time>
      </trkpt>
      <trkpt lat="44.8195" lon="5.70274">
        <ele>720</ele>
        <time>2022-12-13T10:18:50Z</time>
      </trkpt>
      <trkpt lat="44.81947" lon="5.7025">
        <ele>720</ele>
        <time>2022-12-13T10:18:53Z</time>
      </trkpt>
      <trkpt lat="44.81978" lon="5.70186">
        <ele>722</ele>
        <time>2022-12-13T10:19:03Z</time>
      </trkpt>
      <trkpt lat="44.81986" lon="5.70159">
        <ele>722</ele>
        <time>2022-12-13T10:19:07Z</time>
      </trkpt>
      <trkpt lat="44.81995" lon="5.70092">
        <ele>720</ele>
        <time>2022-12-13T10:19:15Z</time>
      </trkpt>
      <trkpt lat="44.81999" lon="5.70076">
        <ele>719</ele>
        <time>2022-12-13T10:19:18Z</time>
      </trkpt>
      <trkpt lat="44.82005" lon="5.70064">
        <ele>720</ele>
        <time>2022-12-13T10:19:19Z</time>
      </trkpt>
      <trkpt lat="44.82011" lon="5.70038">
        <ele>719</ele>
        <time>2022-12-13T10:19:23Z</time>
      </trkpt>
      <trkpt lat="44.82013" lon="5.70019">
        <ele>718</ele>
        <time>2022-12-13T10:19:25Z</time>
      </trkpt>
      <trkpt lat="44.8201" lon="5.69995">
        <ele>716</ele>
        <time>2022-12-13T10:19:28Z</time>
      </trkpt>
      <trkpt lat="44.82004" lon="5.69968">
        <ele>716</ele>
        <time>2022-12-13T10:19:32Z</time>
      </trkpt>
      <trkpt lat="44.81987" lon="5.69928">
        <ele>715</ele>
        <time>2022-12-13T10:19:38Z</time>
      </trkpt>
      <trkpt lat="44.81954" lon="5.69875">
        <ele>717</ele>
        <time>2022-12-13T10:19:47Z</time>
      </trkpt>
      <trkpt lat="44.81923" lon="5.6984">
        <ele>716</ele>
        <time>2022-12-13T10:19:54Z</time>
      </trkpt>
      <trkpt lat="44.81872" lon="5.69806">
        <ele>712</ele>
        <time>2022-12-13T10:20:04Z</time>
      </trkpt>
      <trkpt lat="44.81835" lon="5.69781">
        <ele>708</ele>
        <time>2022-12-13T10:20:11Z</time>
      </trkpt>
      <trkpt lat="44.8182" lon="5.69759">
        <ele>706</ele>
        <time>2022-12-13T10:20:15Z</time>
      </trkpt>
      <trkpt lat="44.81804" lon="5.69705">
        <ele>707</ele>
        <time>2022-12-13T10:20:22Z</time>
      </trkpt>
      <trkpt lat="44.81781" lon="5.69672">
        <ele>704</ele>
        <time>2022-12-13T10:20:28Z</time>
      </trkpt>
      <trkpt lat="44.81763" lon="5.69636">
        <ele>701</ele>
        <time>2022-12-13T10:20:34Z</time>
      </trkpt>
      <trkpt lat="44.8176" lon="5.69621">
        <ele>700</ele>
        <time>2022-12-13T10:20:36Z</time>
      </trkpt>
      <trkpt lat="44.81764" lon="5.69605">
        <ele>701</ele>
        <time>2022-12-13T10:20:38Z</time>
      </trkpt>
      <trkpt lat="44.81792" lon="5.69574">
        <ele>704</ele>
        <time>2022-12-13T10:20:44Z</time>
      </trkpt>
      <trkpt lat="44.81804" lon="5.69566">
        <ele>704</ele>
        <time>2022-12-13T10:20:47Z</time>
      </trkpt>
      <trkpt lat="44.81847" lon="5.69547">
        <ele>708</ele>
        <time>2022-12-13T10:20:55Z</time>
      </trkpt>
      <trkpt lat="44.81863" lon="5.69533">
        <ele>708</ele>
        <time>2022-12-13T10:20:58Z</time>
      </trkpt>
      <trkpt lat="44.81874" lon="5.69513">
        <ele>708</ele>
        <time>2022-12-13T10:21:01Z</time>
      </trkpt>
      <trkpt lat="44.81882" lon="5.69487">
        <ele>709</ele>
        <time>2022-12-13T10:21:05Z</time>
      </trkpt>
      <trkpt lat="44.81888" lon="5.69432">
        <ele>712</ele>
        <time>2022-12-13T10:21:12Z</time>
      </trkpt>
      <trkpt lat="44.81887" lon="5.69413">
        <ele>712</ele>
        <time>2022-12-13T10:21:14Z</time>
      </trkpt>
      <trkpt lat="44.8187" lon="5.69337">
        <ele>714</ele>
        <time>2022-12-13T10:21:24Z</time>
      </trkpt>
      <trkpt lat="44.81865" lon="5.69325">
        <ele>714</ele>
        <time>2022-12-13T10:21:26Z</time>
      </trkpt>
      <trkpt lat="44.81856" lon="5.69314">
        <ele>711</ele>
        <time>2022-12-13T10:21:28Z</time>
      </trkpt>
      <trkpt lat="44.81825" lon="5.69296">
        <ele>703</ele>
        <time>2022-12-13T10:21:34Z</time>
      </trkpt>
      <trkpt lat="44.81814" lon="5.69292">
        <ele>701</ele>
        <time>2022-12-13T10:21:36Z</time>
      </trkpt>
      <trkpt lat="44.81802" lon="5.69291">
        <ele>699</ele>
        <time>2022-12-13T10:21:38Z</time>
      </trkpt>
      <trkpt lat="44.81777" lon="5.69298">
        <ele>694</ele>
        <time>2022-12-13T10:21:43Z</time>
      </trkpt>
      <trkpt lat="44.81767" lon="5.69292">
        <ele>692</ele>
        <time>2022-12-13T10:21:45Z</time>
      </trkpt>
      <trkpt lat="44.81742" lon="5.69267">
        <ele>688</ele>
        <time>2022-12-13T10:21:50Z</time>
      </trkpt>
      <trkpt lat="44.81737" lon="5.69253">
        <ele>688</ele>
        <time>2022-12-13T10:21:52Z</time>
      </trkpt>
      <trkpt lat="44.81739" lon="5.69239">
        <ele>687</ele>
        <time>2022-12-13T10:21:54Z</time>
      </trkpt>
      <trkpt lat="44.81749" lon="5.6923">
        <ele>689</ele>
        <time>2022-12-13T10:21:56Z</time>
      </trkpt>
      <trkpt lat="44.8178" lon="5.69222">
        <ele>694</ele>
        <time>2022-12-13T10:22:02Z</time>
      </trkpt>
      <trkpt lat="44.81806" lon="5.69211">
        <ele>698</ele>
        <time>2022-12-13T10:22:06Z</time>
      </trkpt>
      <trkpt lat="44.81828" lon="5.69195">
        <ele>700</ele>
        <time>2022-12-13T10:22:11Z</time>
      </trkpt>
      <trkpt lat="44.81845" lon="5.69174">
        <ele>702</ele>
        <time>2022-12-13T10:22:15Z</time>
      </trkpt>
      <trkpt lat="44.81859" lon="5.69143">
        <ele>703</ele>
        <time>2022-12-13T10:22:19Z</time>
      </trkpt>
      <trkpt lat="44.81869" lon="5.69113">
        <ele>701</ele>
        <time>2022-12-13T10:22:24Z</time>
      </trkpt>
      <trkpt lat="44.81874" lon="5.69093">
        <ele>699</ele>
        <time>2022-12-13T10:22:26Z</time>
      </trkpt>
      <trkpt lat="44.81876" lon="5.6907">
        <ele>697</ele>
        <time>2022-12-13T10:22:29Z</time>
      </trkpt>
      <trkpt lat="44.81871" lon="5.68972">
        <ele>690</ele>
        <time>2022-12-13T10:22:42Z</time>
      </trkpt>
      <trkpt lat="44.81873" lon="5.68957">
        <ele>688</ele>
        <time>2022-12-13T10:22:44Z</time>
      </trkpt>
      <trkpt lat="44.81878" lon="5.68946">
        <ele>687</ele>
        <time>2022-12-13T10:22:45Z</time>
      </trkpt>
      <trkpt lat="44.81886" lon="5.68936">
        <ele>687</ele>
        <time>2022-12-13T10:22:47Z</time>
      </trkpt>
      <trkpt lat="44.81901" lon="5.68927">
        <ele>686</ele>
        <time>2022-12-13T10:22:50Z</time>
      </trkpt>
      <trkpt lat="44.81957" lon="5.68909">
        <ele>688</ele>
        <time>2022-12-13T10:23:00Z</time>
      </trkpt>
      <trkpt lat="44.81972" lon="5.68898">
        <ele>688</ele>
        <time>2022-12-13T10:23:03Z</time>
      </trkpt>
      <trkpt lat="44.81983" lon="5.68882">
        <ele>687</ele>
        <time>2022-12-13T10:23:06Z</time>
      </trkpt>
      <trkpt lat="44.81997" lon="5.68851">
        <ele>684</ele>
        <time>2022-12-13T10:23:11Z</time>
      </trkpt>
      <trkpt lat="44.82003" lon="5.68846">
        <ele>684</ele>
        <time>2022-12-13T10:23:12Z</time>
      </trkpt>
      <trkpt lat="44.82013" lon="5.68842">
        <ele>685</ele>
        <time>2022-12-13T10:23:14Z</time>
      </trkpt>
      <trkpt lat="44.82026" lon="5.68833">
        <ele>685</ele>
        <time>2022-12-13T10:23:16Z</time>
      </trkpt>
      <trkpt lat="44.82036" lon="5.68818">
        <ele>685</ele>
        <time>2022-12-13T10:23:19Z</time>
      </trkpt>
      <trkpt lat="44.82043" lon="5.68802">
        <ele>685</ele>
        <time>2022-12-13T10:23:21Z</time>
      </trkpt>
      <trkpt lat="44.82053" lon="5.68772">
        <ele>685</ele>
        <time>2022-12-13T10:23:26Z</time>
      </trkpt>
      <trkpt lat="44.82063" lon="5.68752">
        <ele>685</ele>
        <time>2022-12-13T10:23:29Z</time>
      </trkpt>
      <trkpt lat="44.82097" lon="5.68704">
        <ele>689</ele>
        <time>2022-12-13T10:23:37Z</time>
      </trkpt>
      <trkpt lat="44.82122" lon="5.68664">
        <ele>690</ele>
        <time>2022-12-13T10:23:44Z</time>
      </trkpt>
      <trkpt lat="44.8213" lon="5.68656">
        <ele>690</ele>
        <time>2022-12-13T10:23:46Z</time>
      </trkpt>
      <trkpt lat="44.82138" lon="5.68652">
        <ele>690</ele>
        <time>2022-12-13T10:23:47Z</time>
      </trkpt>
      <trkpt lat="44.822" lon="5.68644">
        <ele>695</ele>
        <time>2022-12-13T10:23:58Z</time>
      </trkpt>
      <trkpt lat="44.82209" lon="5.68641">
        <ele>695</ele>
        <time>2022-12-13T10:24:00Z</time>
      </trkpt>
      <trkpt lat="44.82217" lon="5.68633">
        <ele>694</ele>
        <time>2022-12-13T10:24:02Z</time>
      </trkpt>
      <trkpt lat="44.82237" lon="5.68599">
        <ele>689</ele>
        <time>2022-12-13T10:24:07Z</time>
      </trkpt>
      <trkpt lat="44.82243" lon="5.68594">
        <ele>688</ele>
        <time>2022-12-13T10:24:08Z</time>
      </trkpt>
      <trkpt lat="44.82252" lon="5.68594">
        <ele>689</ele>
        <time>2022-12-13T10:24:10Z</time>
      </trkpt>
      <trkpt lat="44.82263" lon="5.686">
        <ele>690</ele>
        <time>2022-12-13T10:24:12Z</time>
      </trkpt>
      <trkpt lat="44.8229" lon="5.68622">
        <ele>694</ele>
        <time>2022-12-13T10:24:18Z</time>
      </trkpt>
      <trkpt lat="44.82304" lon="5.68626">
        <ele>694</ele>
        <time>2022-12-13T10:24:20Z</time>
      </trkpt>
      <trkpt lat="44.8233" lon="5.68624">
        <ele>693</ele>
        <time>2022-12-13T10:24:25Z</time>
      </trkpt>
      <trkpt lat="44.82342" lon="5.68627">
        <ele>693</ele>
        <time>2022-12-13T10:24:27Z</time>
      </trkpt>
      <trkpt lat="44.82377" lon="5.68647">
        <ele>696</ele>
        <time>2022-12-13T10:24:34Z</time>
      </trkpt>
      <trkpt lat="44.8239" lon="5.68648">
        <ele>696</ele>
        <time>2022-12-13T10:24:36Z</time>
      </trkpt>
      <trkpt lat="44.82414" lon="5.6864">
        <ele>695</ele>
        <time>2022-12-13T10:24:40Z</time>
      </trkpt>
      <trkpt lat="44.82452" lon="5.6861">
        <ele>694</ele>
        <time>2022-12-13T10:24:48Z</time>
      </trkpt>
      <trkpt lat="44.8247" lon="5.68596">
        <ele>694</ele>
        <time>2022-12-13T10:24:52Z</time>
      </trkpt>
      <trkpt lat="44.82493" lon="5.68573">
        <ele>694</ele>
        <time>2022-12-13T10:24:57Z</time>
      </trkpt>
      <trkpt lat="44.825" lon="5.6856">
        <ele>694</ele>
        <time>2022-12-13T10:24:59Z</time>
      </trkpt>
      <trkpt lat="44.82506" lon="5.68535">
        <ele>693</ele>
        <time>2022-12-13T10:25:02Z</time>
      </trkpt>
      <trkpt lat="44.82506" lon="5.68475">
        <ele>691</ele>
        <time>2022-12-13T10:25:10Z</time>
      </trkpt>
      <trkpt lat="44.82509" lon="5.68459">
        <ele>691</ele>
        <time>2022-12-13T10:25:12Z</time>
      </trkpt>
      <trkpt lat="44.82515" lon="5.68445">
        <ele>692</ele>
        <time>2022-12-13T10:25:14Z</time>
      </trkpt>
      <trkpt lat="44.82534" lon="5.68417">
        <ele>696</ele>
        <time>2022-12-13T10:25:19Z</time>
      </trkpt>
      <trkpt lat="44.82541" lon="5.684">
        <ele>698</ele>
        <time>2022-12-13T10:25:21Z</time>
      </trkpt>
      <trkpt lat="44.82546" lon="5.68376">
        <ele>700</ele>
        <time>2022-12-13T10:25:25Z</time>
      </trkpt>
      <trkpt lat="44.82547" lon="5.68349">
        <ele>701</ele>
        <time>2022-12-13T10:25:28Z</time>
      </trkpt>
      <trkpt lat="44.82544" lon="5.68331">
        <ele>701</ele>
        <time>2022-12-13T10:25:30Z</time>
      </trkpt>
      <trkpt lat="44.82537" lon="5.68306">
        <ele>701</ele>
        <time>2022-12-13T10:25:34Z</time>
      </trkpt>
      <trkpt lat="44.82525" lon="5.68282">
        <ele>700</ele>
        <time>2022-12-13T10:25:37Z</time>
      </trkpt>
      <trkpt lat="44.825" lon="5.68241">
        <ele>698</ele>
        <time>2022-12-13T10:25:44Z</time>
      </trkpt>
      <trkpt lat="44.82482" lon="5.68208">
        <ele>698</ele>
        <time>2022-12-13T10:25:49Z</time>
      </trkpt>
      <trkpt lat="44.82474" lon="5.68189">
        <ele>698</ele>
        <time>2022-12-13T10:25:52Z</time>
      </trkpt>
      <trkpt lat="44.82471" lon="5.68174">
        <ele>698</ele>
        <time>2022-12-13T10:25:54Z</time>
      </trkpt>
      <trkpt lat="44.82472" lon="5.68161">
        <ele>698</ele>
        <time>2022-12-13T10:25:56Z</time>
      </trkpt>
      <trkpt lat="44.82478" lon="5.68133">
        <ele>697</ele>
        <time>2022-12-13T10:26:00Z</time>
      </trkpt>
      <trkpt lat="44.82487" lon="5.68111">
        <ele>697</ele>
        <time>2022-12-13T10:26:03Z</time>
      </trkpt>
      <trkpt lat="44.82503" lon="5.68088">
        <ele>698</ele>
        <time>2022-12-13T10:26:07Z</time>
      </trkpt>
      <trkpt lat="44.82516" lon="5.68073">
        <ele>699</ele>
        <time>2022-12-13T10:26:10Z</time>
      </trkpt>
      <trkpt lat="44.82536" lon="5.68057">
        <ele>701</ele>
        <time>2022-12-13T10:26:14Z</time>
      </trkpt>
      <trkpt lat="44.82539" lon="5.68037">
        <ele>699</ele>
        <time>2022-12-13T10:26:16Z</time>
      </trkpt>
      <trkpt lat="44.82538" lon="5.67994">
        <ele>695</ele>
        <time>2022-12-13T10:26:22Z</time>
      </trkpt>
      <trkpt lat="44.82544" lon="5.67971">
        <ele>694</ele>
        <time>2022-12-13T10:26:25Z</time>
      </trkpt>
      <trkpt lat="44.8256" lon="5.67944">
        <ele>695</ele>
        <time>2022-12-13T10:26:29Z</time>
      </trkpt>
      <trkpt lat="44.82564" lon="5.67926">
        <ele>695</ele>
        <time>2022-12-13T10:26:32Z</time>
      </trkpt>
      <trkpt lat="44.82564" lon="5.67911">
        <ele>694</ele>
        <time>2022-12-13T10:26:34Z</time>
      </trkpt>
      <trkpt lat="44.8256" lon="5.67871">
        <ele>692</ele>
        <time>2022-12-13T10:26:39Z</time>
      </trkpt>
      <trkpt lat="44.82561" lon="5.67827">
        <ele>691</ele>
        <time>2022-12-13T10:26:44Z</time>
      </trkpt>
      <trkpt lat="44.82564" lon="5.67799">
        <ele>690</ele>
        <time>2022-12-13T10:26:48Z</time>
      </trkpt>
      <trkpt lat="44.82616" lon="5.67608">
        <ele>674</ele>
        <time>2022-12-13T10:27:14Z</time>
      </trkpt>
      <trkpt lat="44.82619" lon="5.67588">
        <ele>673</ele>
        <time>2022-12-13T10:27:16Z</time>
      </trkpt>
      <trkpt lat="44.82614" lon="5.67572">
        <ele>671</ele>
        <time>2022-12-13T10:27:19Z</time>
      </trkpt>
      <trkpt lat="44.82605" lon="5.67566">
        <ele>670</ele>
        <time>2022-12-13T10:27:20Z</time>
      </trkpt>
      <trkpt lat="44.82579" lon="5.67567">
        <ele>669</ele>
        <time>2022-12-13T10:27:25Z</time>
      </trkpt>
      <trkpt lat="44.82566" lon="5.67574">
        <ele>669</ele>
        <time>2022-12-13T10:27:27Z</time>
      </trkpt>
      <trkpt lat="44.82558" lon="5.67585">
        <ele>669</ele>
        <time>2022-12-13T10:27:29Z</time>
      </trkpt>
      <trkpt lat="44.82555" lon="5.67602">
        <ele>671</ele>
        <time>2022-12-13T10:27:32Z</time>
      </trkpt>
      <trkpt lat="44.8255" lon="5.67611">
        <ele>671</ele>
        <time>2022-12-13T10:27:33Z</time>
      </trkpt>
      <trkpt lat="44.82541" lon="5.67613">
        <ele>670</ele>
        <time>2022-12-13T10:27:35Z</time>
      </trkpt>
      <trkpt lat="44.82534" lon="5.67605">
        <ele>669</ele>
        <time>2022-12-13T10:27:36Z</time>
      </trkpt>
      <trkpt lat="44.82523" lon="5.67578">
        <ele>666</ele>
        <time>2022-12-13T10:27:40Z</time>
      </trkpt>
      <trkpt lat="44.82507" lon="5.6755">
        <ele>663</ele>
        <time>2022-12-13T10:27:45Z</time>
      </trkpt>
      <trkpt lat="44.82498" lon="5.67507">
        <ele>658</ele>
        <time>2022-12-13T10:27:50Z</time>
      </trkpt>
      <trkpt lat="44.82495" lon="5.67464">
        <ele>654</ele>
        <time>2022-12-13T10:27:56Z</time>
      </trkpt>
      <trkpt lat="44.82489" lon="5.6745">
        <ele>652</ele>
        <time>2022-12-13T10:27:58Z</time>
      </trkpt>
      <trkpt lat="44.8248" lon="5.67446">
        <ele>651</ele>
        <time>2022-12-13T10:28:00Z</time>
      </trkpt>
      <trkpt lat="44.8247" lon="5.6745">
        <ele>650</ele>
        <time>2022-12-13T10:28:01Z</time>
      </trkpt>
      <trkpt lat="44.82431" lon="5.67485">
        <ele>651</ele>
        <time>2022-12-13T10:28:10Z</time>
      </trkpt>
      <trkpt lat="44.82423" lon="5.67488">
        <ele>650</ele>
        <time>2022-12-13T10:28:11Z</time>
      </trkpt>
      <trkpt lat="44.82416" lon="5.67483">
        <ele>649</ele>
        <time>2022-12-13T10:28:13Z</time>
      </trkpt>
      <trkpt lat="44.82416" lon="5.67471">
        <ele>648</ele>
        <time>2022-12-13T10:28:14Z</time>
      </trkpt>
      <trkpt lat="44.82422" lon="5.6745">
        <ele>647</ele>
        <time>2022-12-13T10:28:17Z</time>
      </trkpt>
      <trkpt lat="44.82425" lon="5.67405">
        <ele>643</ele>
        <time>2022-12-13T10:28:23Z</time>
      </trkpt>
      <trkpt lat="44.82432" lon="5.67356">
        <ele>638</ele>
        <time>2022-12-13T10:28:29Z</time>
      </trkpt>
      <trkpt lat="44.82439" lon="5.67168">
        <ele>621</ele>
        <time>2022-12-13T10:28:53Z</time>
      </trkpt>
      <trkpt lat="44.82456" lon="5.6706">
        <ele>610</ele>
        <time>2022-12-13T10:29:07Z</time>
      </trkpt>
      <trkpt lat="44.82454" lon="5.67048">
        <ele>608</ele>
        <time>2022-12-13T10:29:08Z</time>
      </trkpt>
      <trkpt lat="44.82447" lon="5.67043">
        <ele>606</ele>
        <time>2022-12-13T10:29:10Z</time>
      </trkpt>
      <trkpt lat="44.82437" lon="5.6705">
        <ele>606</ele>
        <time>2022-12-13T10:29:12Z</time>
      </trkpt>
      <trkpt lat="44.82399" lon="5.67106">
        <ele>608</ele>
        <time>2022-12-13T10:29:21Z</time>
      </trkpt>
      <trkpt lat="44.82373" lon="5.67131">
        <ele>605</ele>
        <time>2022-12-13T10:29:27Z</time>
      </trkpt>
      <trkpt lat="44.82364" lon="5.67143">
        <ele>605</ele>
        <time>2022-12-13T10:29:29Z</time>
      </trkpt>
      <trkpt lat="44.82351" lon="5.67169">
        <ele>606</ele>
        <time>2022-12-13T10:29:33Z</time>
      </trkpt>
      <trkpt lat="44.82322" lon="5.67205">
        <ele>603</ele>
        <time>2022-12-13T10:29:40Z</time>
      </trkpt>
      <trkpt lat="44.82309" lon="5.67228">
        <ele>603</ele>
        <time>2022-12-13T10:29:44Z</time>
      </trkpt>
      <trkpt lat="44.82289" lon="5.67272">
        <ele>601</ele>
        <time>2022-12-13T10:29:50Z</time>
      </trkpt>
      <trkpt lat="44.82283" lon="5.67278">
        <ele>600</ele>
        <time>2022-12-13T10:29:52Z</time>
      </trkpt>
      <trkpt lat="44.82275" lon="5.67276">
        <ele>598</ele>
        <time>2022-12-13T10:29:53Z</time>
      </trkpt>
      <trkpt lat="44.82274" lon="5.67274">
        <ele>597</ele>
        <time>2022-12-13T10:29:53Z</time>
      </trkpt>
      <trkpt lat="44.8227" lon="5.67267">
        <ele>596</ele>
        <time>2022-12-13T10:29:55Z</time>
      </trkpt>
      <trkpt lat="44.82271" lon="5.67254">
        <ele>595</ele>
        <time>2022-12-13T10:29:56Z</time>
      </trkpt>
      <trkpt lat="44.82281" lon="5.67224">
        <ele>595</ele>
        <time>2022-12-13T10:30:00Z</time>
      </trkpt>
      <trkpt lat="44.82297" lon="5.67186">
        <ele>595</ele>
        <time>2022-12-13T10:30:06Z</time>
      </trkpt>
      <trkpt lat="44.82297" lon="5.67171">
        <ele>593</ele>
        <time>2022-12-13T10:30:08Z</time>
      </trkpt>
      <trkpt lat="44.82255" lon="5.67227">
        <ele>588</ele>
        <time>2022-12-13T10:30:18Z</time>
      </trkpt>
      <trkpt lat="44.82249" lon="5.67241">
        <ele>588</ele>
        <time>2022-12-13T10:30:20Z</time>
      </trkpt>
      <trkpt lat="44.82246" lon="5.67257">
        <ele>589</ele>
        <time>2022-12-13T10:30:22Z</time>
      </trkpt>
      <trkpt lat="44.82251" lon="5.673">
        <ele>592</ele>
        <time>2022-12-13T10:30:28Z</time>
      </trkpt>
      <trkpt lat="44.8225" lon="5.67318">
        <ele>593</ele>
        <time>2022-12-13T10:30:30Z</time>
      </trkpt>
      <trkpt lat="44.82243" lon="5.67334">
        <ele>593</ele>
        <time>2022-12-13T10:30:32Z</time>
      </trkpt>
      <trkpt lat="44.82229" lon="5.67347">
        <ele>594</ele>
        <time>2022-12-13T10:30:35Z</time>
      </trkpt>
      <trkpt lat="44.82177" lon="5.67381">
        <ele>593</ele>
        <time>2022-12-13T10:30:46Z</time>
      </trkpt>
      <trkpt lat="44.82169" lon="5.67354">
        <ele>589</ele>
        <time>2022-12-13T10:30:49Z</time>
      </trkpt>
      <trkpt lat="44.82158" lon="5.67316">
        <ele>589</ele>
        <time>2022-12-13T10:30:55Z</time>
      </trkpt>
      <trkpt lat="44.82157" lon="5.67311">
        <ele>589</ele>
        <time>2022-12-13T10:30:55Z</time>
      </trkpt>
      <trkpt lat="44.82158" lon="5.67306">
        <ele>589</ele>
        <time>2022-12-13T10:30:56Z</time>
      </trkpt>
      <trkpt lat="44.82171" lon="5.67288">
        <ele>589</ele>
        <time>2022-12-13T10:30:59Z</time>
      </trkpt>
      <trkpt lat="44.82178" lon="5.67261">
        <ele>590</ele>
        <time>2022-12-13T10:31:03Z</time>
      </trkpt>
      <trkpt lat="44.82181" lon="5.67226">
        <ele>589</ele>
        <time>2022-12-13T10:31:07Z</time>
      </trkpt>
      <trkpt lat="44.8218" lon="5.67208">
        <ele>588</ele>
        <time>2022-12-13T10:31:09Z</time>
      </trkpt>
      <trkpt lat="44.82173" lon="5.67196">
        <ele>588</ele>
        <time>2022-12-13T10:31:11Z</time>
      </trkpt>
      <trkpt lat="44.82163" lon="5.67189">
        <ele>589</ele>
        <time>2022-12-13T10:31:13Z</time>
      </trkpt>
      <trkpt lat="44.8211" lon="5.6717">
        <ele>593</ele>
        <time>2022-12-13T10:31:23Z</time>
      </trkpt>
      <trkpt lat="44.82101" lon="5.67163">
        <ele>594</ele>
        <time>2022-12-13T10:31:25Z</time>
      </trkpt>
      <trkpt lat="44.82093" lon="5.67148">
        <ele>595</ele>
        <time>2022-12-13T10:31:27Z</time>
      </trkpt>
      <trkpt lat="44.82088" lon="5.67124">
        <ele>595</ele>
        <time>2022-12-13T10:31:30Z</time>
      </trkpt>
      <trkpt lat="44.8209" lon="5.67099">
        <ele>595</ele>
        <time>2022-12-13T10:31:34Z</time>
      </trkpt>
      <trkpt lat="44.821" lon="5.67075">
        <ele>596</ele>
        <time>2022-12-13T10:31:37Z</time>
      </trkpt>
      <trkpt lat="44.82106" lon="5.67071">
        <ele>597</ele>
        <time>2022-12-13T10:31:38Z</time>
      </trkpt>
      <trkpt lat="44.82129" lon="5.67071">
        <ele>595</ele>
        <time>2022-12-13T10:31:42Z</time>
      </trkpt>
      <trkpt lat="44.82137" lon="5.67068">
        <ele>595</ele>
        <time>2022-12-13T10:31:44Z</time>
      </trkpt>
      <trkpt lat="44.82143" lon="5.67061">
        <ele>596</ele>
        <time>2022-12-13T10:31:45Z</time>
      </trkpt>
      <trkpt lat="44.82159" lon="5.67027">
        <ele>602</ele>
        <time>2022-12-13T10:31:50Z</time>
      </trkpt>
      <trkpt lat="44.82166" lon="5.6702">
        <ele>603</ele>
        <time>2022-12-13T10:31:52Z</time>
      </trkpt>
      <trkpt lat="44.82183" lon="5.67013">
        <ele>601</ele>
        <time>2022-12-13T10:31:55Z</time>
      </trkpt>
      <trkpt lat="44.82191" lon="5.67004">
        <ele>601</ele>
        <time>2022-12-13T10:31:57Z</time>
      </trkpt>
      <trkpt lat="44.82192" lon="5.66998">
        <ele>602</ele>
        <time>2022-12-13T10:31:58Z</time>
      </trkpt>
      <trkpt lat="44.82191" lon="5.6699">
        <ele>604</ele>
        <time>2022-12-13T10:31:59Z</time>
      </trkpt>
      <trkpt lat="44.82189" lon="5.66979">
        <ele>606</ele>
        <time>2022-12-13T10:32:00Z</time>
      </trkpt>
      <trkpt lat="44.82178" lon="5.66957">
        <ele>612</ele>
        <time>2022-12-13T10:32:04Z</time>
      </trkpt>
      <trkpt lat="44.82176" lon="5.66946">
        <ele>614</ele>
        <time>2022-12-13T10:32:05Z</time>
      </trkpt>
      <trkpt lat="44.82177" lon="5.66932">
        <ele>617</ele>
        <time>2022-12-13T10:32:07Z</time>
      </trkpt>
      <trkpt lat="44.82193" lon="5.66896">
        <ele>621</ele>
        <time>2022-12-13T10:32:12Z</time>
      </trkpt>
      <trkpt lat="44.82204" lon="5.66862">
        <ele>625</ele>
        <time>2022-12-13T10:32:17Z</time>
      </trkpt>
      <trkpt lat="44.82216" lon="5.66843">
        <ele>626</ele>
        <time>2022-12-13T10:32:20Z</time>
      </trkpt>
      <trkpt lat="44.82231" lon="5.66829">
        <ele>625</ele>
        <time>2022-12-13T10:32:23Z</time>
      </trkpt>
      <trkpt lat="44.82263" lon="5.6681">
        <ele>622</ele>
        <time>2022-12-13T10:32:29Z</time>
      </trkpt>
      <trkpt lat="44.82293" lon="5.66795">
        <ele>618</ele>
        <time>2022-12-13T10:32:35Z</time>
      </trkpt>
      <trkpt lat="44.82325" lon="5.66787">
        <ele>611</ele>
        <time>2022-12-13T10:32:41Z</time>
      </trkpt>
      <trkpt lat="44.82347" lon="5.66789">
        <ele>607</ele>
        <time>2022-12-13T10:32:45Z</time>
      </trkpt>
      <trkpt lat="44.82353" lon="5.66787">
        <ele>606</ele>
        <time>2022-12-13T10:32:46Z</time>
      </trkpt>
      <trkpt lat="44.82356" lon="5.66782">
        <ele>605</ele>
        <time>2022-12-13T10:32:47Z</time>
      </trkpt>
      <trkpt lat="44.82355" lon="5.66777">
        <ele>606</ele>
        <time>2022-12-13T10:32:47Z</time>
      </trkpt>
      <trkpt lat="44.82351" lon="5.66773">
        <ele>607</ele>
        <time>2022-12-13T10:32:48Z</time>
      </trkpt>
      <trkpt lat="44.8234" lon="5.66777">
        <ele>608</ele>
        <time>2022-12-13T10:32:50Z</time>
      </trkpt>
      <trkpt lat="44.82319" lon="5.66772">
        <ele>613</ele>
        <time>2022-12-13T10:32:54Z</time>
      </trkpt>
      <trkpt lat="44.82299" lon="5.66756">
        <ele>620</ele>
        <time>2022-12-13T10:32:58Z</time>
      </trkpt>
      <trkpt lat="44.82277" lon="5.66742">
        <ele>627</ele>
        <time>2022-12-13T10:33:02Z</time>
      </trkpt>
      <trkpt lat="44.82263" lon="5.66739">
        <ele>632</ele>
        <time>2022-12-13T10:33:05Z</time>
      </trkpt>
      <trkpt lat="44.82249" lon="5.66741">
        <ele>636</ele>
        <time>2022-12-13T10:33:07Z</time>
      </trkpt>
      <trkpt lat="44.82232" lon="5.66749">
        <ele>641</ele>
        <time>2022-12-13T10:33:11Z</time>
      </trkpt>
      <trkpt lat="44.82226" lon="5.66746">
        <ele>642</ele>
        <time>2022-12-13T10:33:12Z</time>
      </trkpt>
      <trkpt lat="44.82225" lon="5.66738">
        <ele>643</ele>
        <time>2022-12-13T10:33:13Z</time>
      </trkpt>
      <trkpt lat="44.82237" lon="5.66727">
        <ele>639</ele>
        <time>2022-12-13T10:33:15Z</time>
      </trkpt>
      <trkpt lat="44.82246" lon="5.66712">
        <ele>637</ele>
        <time>2022-12-13T10:33:18Z</time>
      </trkpt>
      <trkpt lat="44.82247" lon="5.66686">
        <ele>636</ele>
        <time>2022-12-13T10:33:21Z</time>
      </trkpt>
      <trkpt lat="44.82239" lon="5.66627">
        <ele>634</ele>
        <time>2022-12-13T10:33:29Z</time>
      </trkpt>
      <trkpt lat="44.82232" lon="5.66612">
        <ele>634</ele>
        <time>2022-12-13T10:33:31Z</time>
      </trkpt>
      <trkpt lat="44.82222" lon="5.66603">
        <ele>635</ele>
        <time>2022-12-13T10:33:33Z</time>
      </trkpt>
      <trkpt lat="44.82208" lon="5.66598">
        <ele>638</ele>
        <time>2022-12-13T10:33:36Z</time>
      </trkpt>
      <trkpt lat="44.82169" lon="5.66605">
        <ele>649</ele>
        <time>2022-12-13T10:33:43Z</time>
      </trkpt>
      <trkpt lat="44.82151" lon="5.66601">
        <ele>652</ele>
        <time>2022-12-13T10:33:46Z</time>
      </trkpt>
      <trkpt lat="44.82137" lon="5.66594">
        <ele>653</ele>
        <time>2022-12-13T10:33:49Z</time>
      </trkpt>
      <trkpt lat="44.8211" lon="5.66561">
        <ele>655</ele>
        <time>2022-12-13T10:33:55Z</time>
      </trkpt>
      <trkpt lat="44.82095" lon="5.66526">
        <ele>656</ele>
        <time>2022-12-13T10:34:00Z</time>
      </trkpt>
      <trkpt lat="44.82071" lon="5.66495">
        <ele>661</ele>
        <time>2022-12-13T10:34:06Z</time>
      </trkpt>
      <trkpt lat="44.82068" lon="5.6648">
        <ele>662</ele>
        <time>2022-12-13T10:34:08Z</time>
      </trkpt>
      <trkpt lat="44.82075" lon="5.6642">
        <ele>660</ele>
        <time>2022-12-13T10:34:15Z</time>
      </trkpt>
      <trkpt lat="44.82075" lon="5.66399">
        <ele>659</ele>
        <time>2022-12-13T10:34:18Z</time>
      </trkpt>
      <trkpt lat="44.82065" lon="5.6637">
        <ele>661</ele>
        <time>2022-12-13T10:34:22Z</time>
      </trkpt>
      <trkpt lat="44.82008" lon="5.66241">
        <ele>674</ele>
        <time>2022-12-13T10:34:41Z</time>
      </trkpt>
      <trkpt lat="44.82001" lon="5.66229">
        <ele>674</ele>
        <time>2022-12-13T10:34:43Z</time>
      </trkpt>
      <trkpt lat="44.81968" lon="5.66198">
        <ele>670</ele>
        <time>2022-12-13T10:34:50Z</time>
      </trkpt>
      <trkpt lat="44.81954" lon="5.6619">
        <ele>669</ele>
        <time>2022-12-13T10:34:53Z</time>
      </trkpt>
      <trkpt lat="44.81942" lon="5.66193">
        <ele>671</ele>
        <time>2022-12-13T10:34:55Z</time>
      </trkpt>
      <trkpt lat="44.81909" lon="5.66222">
        <ele>679</ele>
        <time>2022-12-13T10:35:02Z</time>
      </trkpt>
      <trkpt lat="44.81894" lon="5.6623">
        <ele>681</ele>
        <time>2022-12-13T10:35:05Z</time>
      </trkpt>
      <trkpt lat="44.819" lon="5.66231">
        <ele>681</ele>
        <time>2022-12-13T10:35:06Z</time>
      </trkpt>
      <trkpt lat="44.81894" lon="5.6623">
        <ele>681</ele>
        <time>2022-12-13T10:35:07Z</time>
      </trkpt>
      <trkpt lat="44.81874" lon="5.66235">
        <ele>682</ele>
        <time>2022-12-13T10:35:11Z</time>
      </trkpt>
      <trkpt lat="44.81814" lon="5.66238">
        <ele>683</ele>
        <time>2022-12-13T10:35:21Z</time>
      </trkpt>
      <trkpt lat="44.81769" lon="5.6623">
        <ele>685</ele>
        <time>2022-12-13T10:35:30Z</time>
      </trkpt>
      <trkpt lat="44.81718" lon="5.66229">
        <ele>690</ele>
        <time>2022-12-13T10:35:39Z</time>
      </trkpt>
      <trkpt lat="44.81701" lon="5.66223">
        <ele>692</ele>
        <time>2022-12-13T10:35:42Z</time>
      </trkpt>
      <trkpt lat="44.81688" lon="5.6621">
        <ele>694</ele>
        <time>2022-12-13T10:35:45Z</time>
      </trkpt>
      <trkpt lat="44.81677" lon="5.66191">
        <ele>695</ele>
        <time>2022-12-13T10:35:48Z</time>
      </trkpt>
      <trkpt lat="44.81664" lon="5.66145">
        <ele>697</ele>
        <time>2022-12-13T10:35:54Z</time>
      </trkpt>
      <trkpt lat="44.81662" lon="5.6613">
        <ele>698</ele>
        <time>2022-12-13T10:35:56Z</time>
      </trkpt>
      <trkpt lat="44.81659" lon="5.66088">
        <ele>699</ele>
        <time>2022-12-13T10:36:01Z</time>
      </trkpt>
      <trkpt lat="44.81655" lon="5.66068">
        <ele>699</ele>
        <time>2022-12-13T10:36:04Z</time>
      </trkpt>
      <trkpt lat="44.81644" lon="5.66048">
        <ele>700</ele>
        <time>2022-12-13T10:36:07Z</time>
      </trkpt>
      <trkpt lat="44.81631" lon="5.66029">
        <ele>701</ele>
        <time>2022-12-13T10:36:10Z</time>
      </trkpt>
      <trkpt lat="44.81611" lon="5.66012">
        <ele>703</ele>
        <time>2022-12-13T10:36:14Z</time>
      </trkpt>
      <trkpt lat="44.81599" lon="5.66007">
        <ele>704</ele>
        <time>2022-12-13T10:36:17Z</time>
      </trkpt>
      <trkpt lat="44.81585" lon="5.66007">
        <ele>706</ele>
        <time>2022-12-13T10:36:19Z</time>
      </trkpt>
      <trkpt lat="44.81452" lon="5.66057">
        <ele>716</ele>
        <time>2022-12-13T10:36:44Z</time>
      </trkpt>
      <trkpt lat="44.81427" lon="5.66057">
        <ele>716</ele>
        <time>2022-12-13T10:36:48Z</time>
      </trkpt>
      <trkpt lat="44.81362" lon="5.66029">
        <ele>716</ele>
        <time>2022-12-13T10:37:00Z</time>
      </trkpt>
      <trkpt lat="44.81347" lon="5.66026">
        <ele>717</ele>
        <time>2022-12-13T10:37:03Z</time>
      </trkpt>
      <trkpt lat="44.81326" lon="5.66028">
        <ele>718</ele>
        <time>2022-12-13T10:37:07Z</time>
      </trkpt>
      <trkpt lat="44.81227" lon="5.66067">
        <ele>723</ele>
        <time>2022-12-13T10:37:25Z</time>
      </trkpt>
      <trkpt lat="44.81208" lon="5.66073">
        <ele>724</ele>
        <time>2022-12-13T10:37:28Z</time>
      </trkpt>
      <trkpt lat="44.81183" lon="5.66075">
        <ele>724</ele>
        <time>2022-12-13T10:37:33Z</time>
      </trkpt>
      <trkpt lat="44.81112" lon="5.66059">
        <ele>727</ele>
        <time>2022-12-13T10:37:46Z</time>
      </trkpt>
      <trkpt lat="44.8108" lon="5.66053">
        <ele>729</ele>
        <time>2022-12-13T10:37:51Z</time>
      </trkpt>
      <trkpt lat="44.81054" lon="5.66042">
        <ele>729</ele>
        <time>2022-12-13T10:37:56Z</time>
      </trkpt>
      <trkpt lat="44.8099" lon="5.65996">
        <ele>729</ele>
        <time>2022-12-13T10:38:09Z</time>
      </trkpt>
      <trkpt lat="44.80974" lon="5.65987">
        <ele>730</ele>
        <time>2022-12-13T10:38:12Z</time>
      </trkpt>
      <trkpt lat="44.8089" lon="5.65955">
        <ele>732</ele>
        <time>2022-12-13T10:38:28Z</time>
      </trkpt>
      <trkpt lat="44.80781" lon="5.65924">
        <ele>736</ele>
        <time>2022-12-13T10:38:47Z</time>
      </trkpt>
      <trkpt lat="44.80757" lon="5.65907">
        <ele>737</ele>
        <time>2022-12-13T10:38:52Z</time>
      </trkpt>
      <trkpt lat="44.80731" lon="5.65879">
        <ele>737</ele>
        <time>2022-12-13T10:38:58Z</time>
      </trkpt>
      <trkpt lat="44.8067" lon="5.6579">
        <ele>737</ele>
        <time>2022-12-13T10:39:14Z</time>
      </trkpt>
      <trkpt lat="44.80649" lon="5.65764">
        <ele>737</ele>
        <time>2022-12-13T10:39:19Z</time>
      </trkpt>
      <trkpt lat="44.80623" lon="5.65741">
        <ele>739</ele>
        <time>2022-12-13T10:39:24Z</time>
      </trkpt>
      <trkpt lat="44.80515" lon="5.65665">
        <ele>745</ele>
        <time>2022-12-13T10:39:46Z</time>
      </trkpt>
      <trkpt lat="44.80495" lon="5.65644">
        <ele>746</ele>
        <time>2022-12-13T10:39:50Z</time>
      </trkpt>
      <trkpt lat="44.80435" lon="5.65551">
        <ele>749</ele>
        <time>2022-12-13T10:40:06Z</time>
      </trkpt>
      <trkpt lat="44.80427" lon="5.65535">
        <ele>750</ele>
        <time>2022-12-13T10:40:08Z</time>
      </trkpt>
      <trkpt lat="44.80419" lon="5.65514">
        <ele>751</ele>
        <time>2022-12-13T10:40:11Z</time>
      </trkpt>
      <trkpt lat="44.80383" lon="5.65399">
        <ele>757</ele>
        <time>2022-12-13T10:40:27Z</time>
      </trkpt>
      <trkpt lat="44.80374" lon="5.65377">
        <ele>759</ele>
        <time>2022-12-13T10:40:30Z</time>
      </trkpt>
      <trkpt lat="44.80364" lon="5.65361">
        <ele>761</ele>
        <time>2022-12-13T10:40:33Z</time>
      </trkpt>
      <trkpt lat="44.80353" lon="5.65347">
        <ele>762</ele>
        <time>2022-12-13T10:40:36Z</time>
      </trkpt>
      <trkpt lat="44.8034" lon="5.65335">
        <ele>764</ele>
        <time>2022-12-13T10:40:38Z</time>
      </trkpt>
      <trkpt lat="44.80229" lon="5.6527">
        <ele>771</ele>
        <time>2022-12-13T10:41:00Z</time>
      </trkpt>
      <trkpt lat="44.80213" lon="5.65257">
        <ele>771</ele>
        <time>2022-12-13T10:41:03Z</time>
      </trkpt>
      <trkpt lat="44.80204" lon="5.65248">
        <ele>772</ele>
        <time>2022-12-13T10:41:05Z</time>
      </trkpt>
      <trkpt lat="44.80197" lon="5.65233">
        <ele>773</ele>
        <time>2022-12-13T10:41:07Z</time>
      </trkpt>
      <trkpt lat="44.8019" lon="5.65209">
        <ele>774</ele>
        <time>2022-12-13T10:41:11Z</time>
      </trkpt>
      <trkpt lat="44.80189" lon="5.65182">
        <ele>776</ele>
        <time>2022-12-13T10:41:14Z</time>
      </trkpt>
      <trkpt lat="44.80199" lon="5.65115">
        <ele>780</ele>
        <time>2022-12-13T10:41:23Z</time>
      </trkpt>
      <trkpt lat="44.80208" lon="5.65031">
        <ele>783</ele>
        <time>2022-12-13T10:41:33Z</time>
      </trkpt>
      <trkpt lat="44.8021" lon="5.64981">
        <ele>786</ele>
        <time>2022-12-13T10:41:40Z</time>
      </trkpt>
      <trkpt lat="44.80201" lon="5.64879">
        <ele>791</ele>
        <time>2022-12-13T10:41:53Z</time>
      </trkpt>
      <trkpt lat="44.80186" lon="5.64808">
        <ele>791</ele>
        <time>2022-12-13T10:42:02Z</time>
      </trkpt>
      <trkpt lat="44.80182" lon="5.64794">
        <ele>791</ele>
        <time>2022-12-13T10:42:04Z</time>
      </trkpt>
      <trkpt lat="44.80178" lon="5.64784">
        <ele>791</ele>
        <time>2022-12-13T10:42:05Z</time>
      </trkpt>
      <trkpt lat="44.80149" lon="5.64738">
        <ele>790</ele>
        <time>2022-12-13T10:42:13Z</time>
      </trkpt>
      <trkpt lat="44.80096" lon="5.64672">
        <ele>786</ele>
        <time>2022-12-13T10:42:26Z</time>
      </trkpt>
      <trkpt lat="44.80048" lon="5.64631">
        <ele>783</ele>
        <time>2022-12-13T10:42:36Z</time>
      </trkpt>
      <trkpt lat="44.80016" lon="5.64584">
        <ele>783</ele>
        <time>2022-12-13T10:42:44Z</time>
      </trkpt>
      <trkpt lat="44.79987" lon="5.64604">
        <ele>783</ele>
        <time>2022-12-13T10:42:50Z</time>
      </trkpt>
      <trkpt lat="44.79881" lon="5.64593">
        <ele>779</ele>
        <time>2022-12-13T10:43:09Z</time>
      </trkpt>
      <trkpt lat="44.79864" lon="5.64585">
        <ele>779</ele>
        <time>2022-12-13T10:43:12Z</time>
      </trkpt>
      <trkpt lat="44.79837" lon="5.64566">
        <ele>779</ele>
        <time>2022-12-13T10:43:17Z</time>
      </trkpt>
      <trkpt lat="44.79827" lon="5.64554">
        <ele>778</ele>
        <time>2022-12-13T10:43:20Z</time>
      </trkpt>
      <trkpt lat="44.79817" lon="5.64535">
        <ele>778</ele>
        <time>2022-12-13T10:43:23Z</time>
      </trkpt>
      <trkpt lat="44.79809" lon="5.6451">
        <ele>779</ele>
        <time>2022-12-13T10:43:26Z</time>
      </trkpt>
      <trkpt lat="44.79804" lon="5.64486">
        <ele>780</ele>
        <time>2022-12-13T10:43:29Z</time>
      </trkpt>
      <trkpt lat="44.79797" lon="5.64421">
        <ele>779</ele>
        <time>2022-12-13T10:43:37Z</time>
      </trkpt>
      <trkpt lat="44.79791" lon="5.644">
        <ele>778</ele>
        <time>2022-12-13T10:43:40Z</time>
      </trkpt>
      <trkpt lat="44.79783" lon="5.64383">
        <ele>777</ele>
        <time>2022-12-13T10:43:43Z</time>
      </trkpt>
      <trkpt lat="44.79774" lon="5.64368">
        <ele>775</ele>
        <time>2022-12-13T10:43:45Z</time>
      </trkpt>
      <trkpt lat="44.79763" lon="5.64357">
        <ele>774</ele>
        <time>2022-12-13T10:43:48Z</time>
      </trkpt>
      <trkpt lat="44.79752" lon="5.64349">
        <ele>772</ele>
        <time>2022-12-13T10:43:50Z</time>
      </trkpt>
      <trkpt lat="44.79739" lon="5.64342">
        <ele>771</ele>
        <time>2022-12-13T10:43:52Z</time>
      </trkpt>
      <trkpt lat="44.79704" lon="5.64331">
        <ele>769</ele>
        <time>2022-12-13T10:43:59Z</time>
      </trkpt>
      <trkpt lat="44.79694" lon="5.64324">
        <ele>769</ele>
        <time>2022-12-13T10:44:01Z</time>
      </trkpt>
      <trkpt lat="44.7967" lon="5.64301">
        <ele>770</ele>
        <time>2022-12-13T10:44:06Z</time>
      </trkpt>
      <trkpt lat="44.79653" lon="5.64297">
        <ele>769</ele>
        <time>2022-12-13T10:44:09Z</time>
      </trkpt>
      <trkpt lat="44.79614" lon="5.64309">
        <ele>764</ele>
        <time>2022-12-13T10:44:16Z</time>
      </trkpt>
      <trkpt lat="44.79605" lon="5.6431">
        <ele>763</ele>
        <time>2022-12-13T10:44:18Z</time>
      </trkpt>
      <trkpt lat="44.79595" lon="5.64307">
        <ele>763</ele>
        <time>2022-12-13T10:44:20Z</time>
      </trkpt>
      <trkpt lat="44.79585" lon="5.643">
        <ele>764</ele>
        <time>2022-12-13T10:44:22Z</time>
      </trkpt>
      <trkpt lat="44.79568" lon="5.64281">
        <ele>766</ele>
        <time>2022-12-13T10:44:25Z</time>
      </trkpt>
      <trkpt lat="44.79559" lon="5.64273">
        <ele>767</ele>
        <time>2022-12-13T10:44:27Z</time>
      </trkpt>
      <trkpt lat="44.79548" lon="5.64269">
        <ele>767</ele>
        <time>2022-12-13T10:44:29Z</time>
      </trkpt>
      <trkpt lat="44.79482" lon="5.6426">
        <ele>763</ele>
        <time>2022-12-13T10:44:41Z</time>
      </trkpt>
      <trkpt lat="44.79469" lon="5.64256">
        <ele>763</ele>
        <time>2022-12-13T10:44:44Z</time>
      </trkpt>
      <trkpt lat="44.79419" lon="5.64221">
        <ele>764</ele>
        <time>2022-12-13T10:44:53Z</time>
      </trkpt>
      <trkpt lat="44.79409" lon="5.64217">
        <ele>764</ele>
        <time>2022-12-13T10:44:55Z</time>
      </trkpt>
      <trkpt lat="44.79398" lon="5.64216">
        <ele>764</ele>
        <time>2022-12-13T10:44:57Z</time>
      </trkpt>
      <trkpt lat="44.79366" lon="5.64219">
        <ele>763</ele>
        <time>2022-12-13T10:45:03Z</time>
      </trkpt>
      <trkpt lat="44.79356" lon="5.64222">
        <ele>763</ele>
        <time>2022-12-13T10:45:05Z</time>
      </trkpt>
      <trkpt lat="44.7935" lon="5.6423">
        <ele>763</ele>
        <time>2022-12-13T10:45:06Z</time>
      </trkpt>
      <trkpt lat="44.79347" lon="5.64241">
        <ele>763</ele>
        <time>2022-12-13T10:45:08Z</time>
      </trkpt>
      <trkpt lat="44.79345" lon="5.64279">
        <ele>765</ele>
        <time>2022-12-13T10:45:13Z</time>
      </trkpt>
      <trkpt lat="44.7935" lon="5.6429">
        <ele>766</ele>
        <time>2022-12-13T10:45:14Z</time>
      </trkpt>
      <trkpt lat="44.79367" lon="5.64305">
        <ele>766</ele>
        <time>2022-12-13T10:45:18Z</time>
      </trkpt>
      <trkpt lat="44.79456" lon="5.64394">
        <ele>765</ele>
        <time>2022-12-13T10:45:37Z</time>
      </trkpt>
      <trkpt lat="44.79472" lon="5.64414">
        <ele>765</ele>
        <time>2022-12-13T10:45:41Z</time>
      </trkpt>
      <trkpt lat="44.79483" lon="5.64435">
        <ele>765</ele>
        <time>2022-12-13T10:45:44Z</time>
      </trkpt>
      <trkpt lat="44.7949" lon="5.64453">
        <ele>766</ele>
        <time>2022-12-13T10:45:47Z</time>
      </trkpt>
      <trkpt lat="44.79497" lon="5.64484">
        <ele>767</ele>
        <time>2022-12-13T10:45:51Z</time>
      </trkpt>
      <trkpt lat="44.79507" lon="5.64554">
        <ele>769</ele>
        <time>2022-12-13T10:46:00Z</time>
      </trkpt>
      <trkpt lat="44.79509" lon="5.64577">
        <ele>769</ele>
        <time>2022-12-13T10:46:03Z</time>
      </trkpt>
      <trkpt lat="44.79507" lon="5.64619">
        <ele>771</ele>
        <time>2022-12-13T10:46:08Z</time>
      </trkpt>
      <trkpt lat="44.79483" lon="5.64775">
        <ele>772</ele>
        <time>2022-12-13T10:46:28Z</time>
      </trkpt>
      <trkpt lat="44.79448" lon="5.64997">
        <ele>773</ele>
        <time>2022-12-13T10:46:57Z</time>
      </trkpt>
      <trkpt lat="44.79444" lon="5.65039">
        <ele>773</ele>
        <time>2022-12-13T10:47:02Z</time>
      </trkpt>
      <trkpt lat="44.79443" lon="5.65076">
        <ele>773</ele>
        <time>2022-12-13T10:47:07Z</time>
      </trkpt>
      <trkpt lat="44.7946" lon="5.65291">
        <ele>772</ele>
        <time>2022-12-13T10:47:34Z</time>
      </trkpt>
      <trkpt lat="44.7946" lon="5.6532">
        <ele>773</ele>
        <time>2022-12-13T10:47:38Z</time>
      </trkpt>
      <trkpt lat="44.79457" lon="5.65371">
        <ele>774</ele>
        <time>2022-12-13T10:47:45Z</time>
      </trkpt>
      <trkpt lat="44.79448" lon="5.65449">
        <ele>776</ele>
        <time>2022-12-13T10:47:55Z</time>
      </trkpt>
      <trkpt lat="44.79438" lon="5.65564">
        <ele>777</ele>
        <time>2022-12-13T10:48:09Z</time>
      </trkpt>
      <trkpt lat="44.79442" lon="5.65597">
        <ele>778</ele>
        <time>2022-12-13T10:48:13Z</time>
      </trkpt>
      <trkpt lat="44.79475" lon="5.65718">
        <ele>784</ele>
        <time>2022-12-13T10:48:30Z</time>
      </trkpt>
      <trkpt lat="44.7948" lon="5.65739">
        <ele>786</ele>
        <time>2022-12-13T10:48:33Z</time>
      </trkpt>
      <trkpt lat="44.79479" lon="5.65753">
        <ele>787</ele>
        <time>2022-12-13T10:48:34Z</time>
      </trkpt>
      <trkpt lat="44.79478" lon="5.65771">
        <ele>787</ele>
        <time>2022-12-13T10:48:37Z</time>
      </trkpt>
      <trkpt lat="44.79473" lon="5.65809">
        <ele>788</ele>
        <time>2022-12-13T10:48:42Z</time>
      </trkpt>
      <trkpt lat="44.79455" lon="5.65852">
        <ele>788</ele>
        <time>2022-12-13T10:48:48Z</time>
      </trkpt>
      <trkpt lat="44.79424" lon="5.65894">
        <ele>788</ele>
        <time>2022-12-13T10:48:55Z</time>
      </trkpt>
      <trkpt lat="44.79449" lon="5.65936">
        <ele>786</ele>
        <time>2022-12-13T10:49:02Z</time>
      </trkpt>
      <trkpt lat="44.79438" lon="5.65944">
        <ele>785</ele>
        <time>2022-12-13T10:49:05Z</time>
      </trkpt>
      <trkpt lat="44.79396" lon="5.65966">
        <ele>780</ele>
        <time>2022-12-13T10:49:13Z</time>
      </trkpt>
      <trkpt lat="44.79388" lon="5.65966">
        <ele>778</ele>
        <time>2022-12-13T10:49:14Z</time>
      </trkpt>
      <trkpt lat="44.7938" lon="5.65964">
        <ele>777</ele>
        <time>2022-12-13T10:49:15Z</time>
      </trkpt>
      <trkpt lat="44.79356" lon="5.6595">
        <ele>776</ele>
        <time>2022-12-13T10:49:20Z</time>
      </trkpt>
      <trkpt lat="44.79318" lon="5.65923">
        <ele>774</ele>
        <time>2022-12-13T10:49:28Z</time>
      </trkpt>
      <trkpt lat="44.79296" lon="5.65897">
        <ele>771</ele>
        <time>2022-12-13T10:49:33Z</time>
      </trkpt>
      <trkpt lat="44.79277" lon="5.65868">
        <ele>770</ele>
        <time>2022-12-13T10:49:38Z</time>
      </trkpt>
      <trkpt lat="44.79172" lon="5.65676">
        <ele>764</ele>
        <time>2022-12-13T10:50:08Z</time>
      </trkpt>
      <trkpt lat="44.79164" lon="5.65653">
        <ele>764</ele>
        <time>2022-12-13T10:50:12Z</time>
      </trkpt>
      <trkpt lat="44.79155" lon="5.65592">
        <ele>767</ele>
        <time>2022-12-13T10:50:19Z</time>
      </trkpt>
      <trkpt lat="44.79129" lon="5.65471">
        <ele>770</ele>
        <time>2022-12-13T10:50:35Z</time>
      </trkpt>
      <trkpt lat="44.79123" lon="5.6546">
        <ele>769</ele>
        <time>2022-12-13T10:50:37Z</time>
      </trkpt>
      <trkpt lat="44.79114" lon="5.65454">
        <ele>768</ele>
        <time>2022-12-13T10:50:39Z</time>
      </trkpt>
      <trkpt lat="44.79102" lon="5.65455">
        <ele>765</ele>
        <time>2022-12-13T10:50:41Z</time>
      </trkpt>
      <trkpt lat="44.79093" lon="5.65468">
        <ele>762</ele>
        <time>2022-12-13T10:50:43Z</time>
      </trkpt>
      <trkpt lat="44.79088" lon="5.65485">
        <ele>760</ele>
        <time>2022-12-13T10:50:46Z</time>
      </trkpt>
      <trkpt lat="44.79088" lon="5.65505">
        <ele>759</ele>
        <time>2022-12-13T10:50:48Z</time>
      </trkpt>
      <trkpt lat="44.79094" lon="5.65533">
        <ele>758</ele>
        <time>2022-12-13T10:50:52Z</time>
      </trkpt>
      <trkpt lat="44.79094" lon="5.65554">
        <ele>757</ele>
        <time>2022-12-13T10:50:55Z</time>
      </trkpt>
      <trkpt lat="44.79091" lon="5.65571">
        <ele>755</ele>
        <time>2022-12-13T10:50:57Z</time>
      </trkpt>
      <trkpt lat="44.79079" lon="5.65589">
        <ele>753</ele>
        <time>2022-12-13T10:51:00Z</time>
      </trkpt>
      <trkpt lat="44.79065" lon="5.65595">
        <ele>753</ele>
        <time>2022-12-13T10:51:02Z</time>
      </trkpt>
      <trkpt lat="44.79049" lon="5.6559">
        <ele>753</ele>
        <time>2022-12-13T10:51:05Z</time>
      </trkpt>
      <trkpt lat="44.79021" lon="5.65564">
        <ele>753</ele>
        <time>2022-12-13T10:51:11Z</time>
      </trkpt>
      <trkpt lat="44.79015" lon="5.65563">
        <ele>753</ele>
        <time>2022-12-13T10:51:12Z</time>
      </trkpt>
      <trkpt lat="44.79006" lon="5.65566">
        <ele>753</ele>
        <time>2022-12-13T10:51:14Z</time>
      </trkpt>
      <trkpt lat="44.78997" lon="5.65582">
        <ele>752</ele>
        <time>2022-12-13T10:51:17Z</time>
      </trkpt>
      <trkpt lat="44.78997" lon="5.65595">
        <ele>753</ele>
        <time>2022-12-13T10:51:18Z</time>
      </trkpt>
      <trkpt lat="44.79003" lon="5.65612">
        <ele>753</ele>
        <time>2022-12-13T10:51:21Z</time>
      </trkpt>
      <trkpt lat="44.79042" lon="5.65691">
        <ele>752</ele>
        <time>2022-12-13T10:51:33Z</time>
      </trkpt>
      <trkpt lat="44.79064" lon="5.65732">
        <ele>750</ele>
        <time>2022-12-13T10:51:39Z</time>
      </trkpt>
      <trkpt lat="44.79072" lon="5.6575">
        <ele>749</ele>
        <time>2022-12-13T10:51:42Z</time>
      </trkpt>
      <trkpt lat="44.79072" lon="5.65762">
        <ele>749</ele>
        <time>2022-12-13T10:51:44Z</time>
      </trkpt>
      <trkpt lat="44.79069" lon="5.65778">
        <ele>749</ele>
        <time>2022-12-13T10:51:46Z</time>
      </trkpt>
      <trkpt lat="44.79065" lon="5.65786">
        <ele>749</ele>
        <time>2022-12-13T10:51:47Z</time>
      </trkpt>
      <trkpt lat="44.79055" lon="5.65795">
        <ele>749</ele>
        <time>2022-12-13T10:51:49Z</time>
      </trkpt>
      <trkpt lat="44.79047" lon="5.658">
        <ele>749</ele>
        <time>2022-12-13T10:51:51Z</time>
      </trkpt>
      <trkpt lat="44.79034" lon="5.65799">
        <ele>750</ele>
        <time>2022-12-13T10:51:53Z</time>
      </trkpt>
      <trkpt lat="44.78968" lon="5.65773">
        <ele>753</ele>
        <time>2022-12-13T10:52:05Z</time>
      </trkpt>
      <trkpt lat="44.78943" lon="5.65765">
        <ele>755</ele>
        <time>2022-12-13T10:52:10Z</time>
      </trkpt>
      <trkpt lat="44.78927" lon="5.65769">
        <ele>755</ele>
        <time>2022-12-13T10:52:12Z</time>
      </trkpt>
      <trkpt lat="44.78917" lon="5.65782">
        <ele>755</ele>
        <time>2022-12-13T10:52:15Z</time>
      </trkpt>
      <trkpt lat="44.78914" lon="5.65799">
        <ele>754</ele>
        <time>2022-12-13T10:52:17Z</time>
      </trkpt>
      <trkpt lat="44.78915" lon="5.65813">
        <ele>754</ele>
        <time>2022-12-13T10:52:19Z</time>
      </trkpt>
      <trkpt lat="44.78942" lon="5.65842">
        <ele>751</ele>
        <time>2022-12-13T10:52:25Z</time>
      </trkpt>
      <trkpt lat="44.78948" lon="5.65854">
        <ele>751</ele>
        <time>2022-12-13T10:52:27Z</time>
      </trkpt>
      <trkpt lat="44.78978" lon="5.6596">
        <ele>747</ele>
        <time>2022-12-13T10:52:41Z</time>
      </trkpt>
      <trkpt lat="44.79004" lon="5.66109">
        <ele>743</ele>
        <time>2022-12-13T10:53:01Z</time>
      </trkpt>
      <trkpt lat="44.7902" lon="5.66205">
        <ele>741</ele>
        <time>2022-12-13T10:53:13Z</time>
      </trkpt>
      <trkpt lat="44.79026" lon="5.66228">
        <ele>741</ele>
        <time>2022-12-13T10:53:16Z</time>
      </trkpt>
      <trkpt lat="44.79036" lon="5.66254">
        <ele>740</ele>
        <time>2022-12-13T10:53:20Z</time>
      </trkpt>
      <trkpt lat="44.7905" lon="5.66282">
        <ele>742</ele>
        <time>2022-12-13T10:53:24Z</time>
      </trkpt>
      <trkpt lat="44.79088" lon="5.66339">
        <ele>744</ele>
        <time>2022-12-13T10:53:34Z</time>
      </trkpt>
      <trkpt lat="44.79102" lon="5.66362">
        <ele>745</ele>
        <time>2022-12-13T10:53:38Z</time>
      </trkpt>
      <trkpt lat="44.79113" lon="5.66385">
        <ele>746</ele>
        <time>2022-12-13T10:53:41Z</time>
      </trkpt>
      <trkpt lat="44.79137" lon="5.66453">
        <ele>743</ele>
        <time>2022-12-13T10:53:51Z</time>
      </trkpt>
      <trkpt lat="44.79143" lon="5.66475">
        <ele>742</ele>
        <time>2022-12-13T10:53:54Z</time>
      </trkpt>
      <trkpt lat="44.79155" lon="5.66498">
        <ele>741</ele>
        <time>2022-12-13T10:53:58Z</time>
      </trkpt>
      <trkpt lat="44.79178" lon="5.66562">
        <ele>739</ele>
        <time>2022-12-13T10:54:07Z</time>
      </trkpt>
      <trkpt lat="44.79192" lon="5.66583">
        <ele>738</ele>
        <time>2022-12-13T10:54:10Z</time>
      </trkpt>
      <trkpt lat="44.79212" lon="5.66633">
        <ele>734</ele>
        <time>2022-12-13T10:54:17Z</time>
      </trkpt>
      <trkpt lat="44.79217" lon="5.66749">
        <ele>732</ele>
        <time>2022-12-13T10:54:32Z</time>
      </trkpt>
      <trkpt lat="44.79214" lon="5.66789">
        <ele>731</ele>
        <time>2022-12-13T10:54:37Z</time>
      </trkpt>
      <trkpt lat="44.79215" lon="5.66813">
        <ele>730</ele>
        <time>2022-12-13T10:54:40Z</time>
      </trkpt>
      <trkpt lat="44.79218" lon="5.66832">
        <ele>729</ele>
        <time>2022-12-13T10:54:43Z</time>
      </trkpt>
      <trkpt lat="44.79233" lon="5.6689">
        <ele>728</ele>
        <time>2022-12-13T10:54:51Z</time>
      </trkpt>
      <trkpt lat="44.79225" lon="5.67047">
        <ele>727</ele>
        <time>2022-12-13T10:55:10Z</time>
      </trkpt>
      <trkpt lat="44.79212" lon="5.67101">
        <ele>728</ele>
        <time>2022-12-13T10:55:18Z</time>
      </trkpt>
      <trkpt lat="44.79202" lon="5.67126">
        <ele>728</ele>
        <time>2022-12-13T10:55:21Z</time>
      </trkpt>
      <trkpt lat="44.79198" lon="5.67144">
        <ele>728</ele>
        <time>2022-12-13T10:55:24Z</time>
      </trkpt>
      <trkpt lat="44.79197" lon="5.67158">
        <ele>728</ele>
        <time>2022-12-13T10:55:25Z</time>
      </trkpt>
      <trkpt lat="44.79197" lon="5.67173">
        <ele>728</ele>
        <time>2022-12-13T10:55:27Z</time>
      </trkpt>
      <trkpt lat="44.79203" lon="5.67202">
        <ele>729</ele>
        <time>2022-12-13T10:55:31Z</time>
      </trkpt>
      <trkpt lat="44.79211" lon="5.67229">
        <ele>728</ele>
        <time>2022-12-13T10:55:35Z</time>
      </trkpt>
      <trkpt lat="44.79216" lon="5.67249">
        <ele>728</ele>
        <time>2022-12-13T10:55:37Z</time>
      </trkpt>
      <trkpt lat="44.79219" lon="5.67272">
        <ele>728</ele>
        <time>2022-12-13T10:55:40Z</time>
      </trkpt>
      <trkpt lat="44.7922" lon="5.67295">
        <ele>727</ele>
        <time>2022-12-13T10:55:43Z</time>
      </trkpt>
      <trkpt lat="44.79218" lon="5.67317">
        <ele>727</ele>
        <time>2022-12-13T10:55:46Z</time>
      </trkpt>
      <trkpt lat="44.79214" lon="5.67337">
        <ele>727</ele>
        <time>2022-12-13T10:55:49Z</time>
      </trkpt>
      <trkpt lat="44.79206" lon="5.67352">
        <ele>727</ele>
        <time>2022-12-13T10:55:51Z</time>
      </trkpt>
      <trkpt lat="44.79175" lon="5.67403">
        <ele>727</ele>
        <time>2022-12-13T10:56:00Z</time>
      </trkpt>
      <trkpt lat="44.79114" lon="5.6749">
        <ele>727</ele>
        <time>2022-12-13T10:56:15Z</time>
      </trkpt>
      <trkpt lat="44.79051" lon="5.6759">
        <ele>729</ele>
        <time>2022-12-13T10:56:32Z</time>
      </trkpt>
      <trkpt lat="44.79026" lon="5.67617">
        <ele>729</ele>
        <time>2022-12-13T10:56:38Z</time>
      </trkpt>
      <trkpt lat="44.79012" lon="5.67627">
        <ele>729</ele>
        <time>2022-12-13T10:56:40Z</time>
      </trkpt>
      <trkpt lat="44.78992" lon="5.67636">
        <ele>730</ele>
        <time>2022-12-13T10:56:44Z</time>
      </trkpt>
      <trkpt lat="44.78975" lon="5.67642">
        <ele>730</ele>
        <time>2022-12-13T10:56:47Z</time>
      </trkpt>
      <trkpt lat="44.78934" lon="5.67644">
        <ele>731</ele>
        <time>2022-12-13T10:56:54Z</time>
      </trkpt>
      <trkpt lat="44.78873" lon="5.67627">
        <ele>728</ele>
        <time>2022-12-13T10:57:06Z</time>
      </trkpt>
      <trkpt lat="44.78857" lon="5.67616">
        <ele>727</ele>
        <time>2022-12-13T10:57:09Z</time>
      </trkpt>
      <trkpt lat="44.78843" lon="5.67602">
        <ele>727</ele>
        <time>2022-12-13T10:57:12Z</time>
      </trkpt>
      <trkpt lat="44.78835" lon="5.67583">
        <ele>727</ele>
        <time>2022-12-13T10:57:15Z</time>
      </trkpt>
      <trkpt lat="44.78829" lon="5.67544">
        <ele>731</ele>
        <time>2022-12-13T10:57:20Z</time>
      </trkpt>
      <trkpt lat="44.78825" lon="5.67524">
        <ele>732</ele>
        <time>2022-12-13T10:57:22Z</time>
      </trkpt>
      <trkpt lat="44.78815" lon="5.67502">
        <ele>732</ele>
        <time>2022-12-13T10:57:26Z</time>
      </trkpt>
      <trkpt lat="44.7879" lon="5.67471">
        <ele>730</ele>
        <time>2022-12-13T10:57:31Z</time>
      </trkpt>
      <trkpt lat="44.78757" lon="5.67424">
        <ele>727</ele>
        <time>2022-12-13T10:57:40Z</time>
      </trkpt>
      <trkpt lat="44.78739" lon="5.67403">
        <ele>727</ele>
        <time>2022-12-13T10:57:44Z</time>
      </trkpt>
      <trkpt lat="44.78731" lon="5.67398">
        <ele>728</ele>
        <time>2022-12-13T10:57:46Z</time>
      </trkpt>
      <trkpt lat="44.78721" lon="5.67394">
        <ele>728</ele>
        <time>2022-12-13T10:57:47Z</time>
      </trkpt>
      <trkpt lat="44.7871" lon="5.67394">
        <ele>729</ele>
        <time>2022-12-13T10:57:49Z</time>
      </trkpt>
      <trkpt lat="44.78699" lon="5.67401">
        <ele>728</ele>
        <time>2022-12-13T10:57:51Z</time>
      </trkpt>
      <trkpt lat="44.78694" lon="5.67409">
        <ele>728</ele>
        <time>2022-12-13T10:57:53Z</time>
      </trkpt>
      <trkpt lat="44.78688" lon="5.67424">
        <ele>727</ele>
        <time>2022-12-13T10:57:55Z</time>
      </trkpt>
      <trkpt lat="44.78687" lon="5.67441">
        <ele>726</ele>
        <time>2022-12-13T10:57:57Z</time>
      </trkpt>
      <trkpt lat="44.78687" lon="5.67454">
        <ele>726</ele>
        <time>2022-12-13T10:57:59Z</time>
      </trkpt>
      <trkpt lat="44.78715" lon="5.6753">
        <ele>721</ele>
        <time>2022-12-13T10:58:10Z</time>
      </trkpt>
      <trkpt lat="44.78718" lon="5.67543">
        <ele>720</ele>
        <time>2022-12-13T10:58:11Z</time>
      </trkpt>
      <trkpt lat="44.78725" lon="5.67622">
        <ele>715</ele>
        <time>2022-12-13T10:58:21Z</time>
      </trkpt>
      <trkpt lat="44.78724" lon="5.67633">
        <ele>714</ele>
        <time>2022-12-13T10:58:23Z</time>
      </trkpt>
      <trkpt lat="44.78713" lon="5.67658">
        <ele>714</ele>
        <time>2022-12-13T10:58:26Z</time>
      </trkpt>
      <trkpt lat="44.7871" lon="5.67674">
        <ele>714</ele>
        <time>2022-12-13T10:58:29Z</time>
      </trkpt>
      <trkpt lat="44.78711" lon="5.67689">
        <ele>714</ele>
        <time>2022-12-13T10:58:30Z</time>
      </trkpt>
      <trkpt lat="44.78716" lon="5.67703">
        <ele>713</ele>
        <time>2022-12-13T10:58:32Z</time>
      </trkpt>
      <trkpt lat="44.78736" lon="5.67734">
        <ele>710</ele>
        <time>2022-12-13T10:58:38Z</time>
      </trkpt>
      <trkpt lat="44.7874" lon="5.67745">
        <ele>709</ele>
        <time>2022-12-13T10:58:39Z</time>
      </trkpt>
      <trkpt lat="44.78741" lon="5.67757">
        <ele>708</ele>
        <time>2022-12-13T10:58:41Z</time>
      </trkpt>
      <trkpt lat="44.78739" lon="5.67768">
        <ele>708</ele>
        <time>2022-12-13T10:58:42Z</time>
      </trkpt>
      <trkpt lat="44.78735" lon="5.67779">
        <ele>708</ele>
        <time>2022-12-13T10:58:44Z</time>
      </trkpt>
      <trkpt lat="44.78712" lon="5.67826">
        <ele>708</ele>
        <time>2022-12-13T10:58:51Z</time>
      </trkpt>
      <trkpt lat="44.78705" lon="5.67844">
        <ele>708</ele>
        <time>2022-12-13T10:58:54Z</time>
      </trkpt>
      <trkpt lat="44.78701" lon="5.67863">
        <ele>708</ele>
        <time>2022-12-13T10:58:56Z</time>
      </trkpt>
      <trkpt lat="44.78697" lon="5.67911">
        <ele>706</ele>
        <time>2022-12-13T10:59:02Z</time>
      </trkpt>
      <trkpt lat="44.78693" lon="5.67929">
        <ele>705</ele>
        <time>2022-12-13T10:59:05Z</time>
      </trkpt>
      <trkpt lat="44.78685" lon="5.67944">
        <ele>704</ele>
        <time>2022-12-13T10:59:07Z</time>
      </trkpt>
      <trkpt lat="44.78671" lon="5.67957">
        <ele>704</ele>
        <time>2022-12-13T10:59:10Z</time>
      </trkpt>
      <trkpt lat="44.78631" lon="5.67987">
        <ele>705</ele>
        <time>2022-12-13T10:59:18Z</time>
      </trkpt>
      <trkpt lat="44.78549" lon="5.68038">
        <ele>700</ele>
        <time>2022-12-13T10:59:34Z</time>
      </trkpt>
      <trkpt lat="44.78538" lon="5.68042">
        <ele>701</ele>
        <time>2022-12-13T10:59:36Z</time>
      </trkpt>
      <trkpt lat="44.78529" lon="5.68041">
        <ele>702</ele>
        <time>2022-12-13T10:59:38Z</time>
      </trkpt>
      <trkpt lat="44.78503" lon="5.68022">
        <ele>708</ele>
        <time>2022-12-13T10:59:43Z</time>
      </trkpt>
      <trkpt lat="44.78493" lon="5.68018">
        <ele>709</ele>
        <time>2022-12-13T10:59:45Z</time>
      </trkpt>
      <trkpt lat="44.7847" lon="5.68022">
        <ele>708</ele>
        <time>2022-12-13T10:59:49Z</time>
      </trkpt>
      <trkpt lat="44.7846" lon="5.68021">
        <ele>708</ele>
        <time>2022-12-13T10:59:51Z</time>
      </trkpt>
      <trkpt lat="44.78451" lon="5.68029">
        <ele>707</ele>
        <time>2022-12-13T10:59:52Z</time>
      </trkpt>
      <trkpt lat="44.78416" lon="5.68043">
        <ele>704</ele>
        <time>2022-12-13T10:59:59Z</time>
      </trkpt>
      <trkpt lat="44.78403" lon="5.68056">
        <ele>703</ele>
        <time>2022-12-13T11:00:02Z</time>
      </trkpt>
      <trkpt lat="44.78399" lon="5.68071">
        <ele>701</ele>
        <time>2022-12-13T11:00:04Z</time>
      </trkpt>
      <trkpt lat="44.78402" lon="5.68089">
        <ele>698</ele>
        <time>2022-12-13T11:00:06Z</time>
      </trkpt>
      <trkpt lat="44.78412" lon="5.68099">
        <ele>696</ele>
        <time>2022-12-13T11:00:08Z</time>
      </trkpt>
      <trkpt lat="44.78429" lon="5.68106">
        <ele>695</ele>
        <time>2022-12-13T11:00:11Z</time>
      </trkpt>
      <trkpt lat="44.78444" lon="5.68107">
        <ele>694</ele>
        <time>2022-12-13T11:00:14Z</time>
      </trkpt>
      <trkpt lat="44.78456" lon="5.68103">
        <ele>694</ele>
        <time>2022-12-13T11:00:16Z</time>
      </trkpt>
      <trkpt lat="44.78478" lon="5.68085">
        <ele>697</ele>
        <time>2022-12-13T11:00:21Z</time>
      </trkpt>
      <trkpt lat="44.78488" lon="5.68082">
        <ele>697</ele>
        <time>2022-12-13T11:00:23Z</time>
      </trkpt>
      <trkpt lat="44.78496" lon="5.68084">
        <ele>697</ele>
        <time>2022-12-13T11:00:24Z</time>
      </trkpt>
      <trkpt lat="44.78502" lon="5.68092">
        <ele>695</ele>
        <time>2022-12-13T11:00:26Z</time>
      </trkpt>
      <trkpt lat="44.78503" lon="5.68104">
        <ele>692</ele>
        <time>2022-12-13T11:00:27Z</time>
      </trkpt>
      <trkpt lat="44.78497" lon="5.68115">
        <ele>691</ele>
        <time>2022-12-13T11:00:29Z</time>
      </trkpt>
      <trkpt lat="44.78456" lon="5.68144">
        <ele>687</ele>
        <time>2022-12-13T11:00:37Z</time>
      </trkpt>
      <trkpt lat="44.78439" lon="5.68152">
        <ele>687</ele>
        <time>2022-12-13T11:00:40Z</time>
      </trkpt>
      <trkpt lat="44.78431" lon="5.6816">
        <ele>687</ele>
        <time>2022-12-13T11:00:42Z</time>
      </trkpt>
      <trkpt lat="44.78429" lon="5.68171">
        <ele>686</ele>
        <time>2022-12-13T11:00:43Z</time>
      </trkpt>
      <trkpt lat="44.78431" lon="5.68182">
        <ele>685</ele>
        <time>2022-12-13T11:00:45Z</time>
      </trkpt>
      <trkpt lat="44.78438" lon="5.68188">
        <ele>684</ele>
        <time>2022-12-13T11:00:46Z</time>
      </trkpt>
      <trkpt lat="44.78447" lon="5.68188">
        <ele>683</ele>
        <time>2022-12-13T11:00:48Z</time>
      </trkpt>
      <trkpt lat="44.78481" lon="5.68168">
        <ele>681</ele>
        <time>2022-12-13T11:00:54Z</time>
      </trkpt>
      <trkpt lat="44.78495" lon="5.68165">
        <ele>681</ele>
        <time>2022-12-13T11:00:57Z</time>
      </trkpt>
      <trkpt lat="44.78508" lon="5.68167">
        <ele>679</ele>
        <time>2022-12-13T11:00:59Z</time>
      </trkpt>
      <trkpt lat="44.78584" lon="5.68184">
        <ele>673</ele>
        <time>2022-12-13T11:01:13Z</time>
      </trkpt>
      <trkpt lat="44.78596" lon="5.68187">
        <ele>673</ele>
        <time>2022-12-13T11:01:15Z</time>
      </trkpt>
      <trkpt lat="44.78603" lon="5.68195">
        <ele>673</ele>
        <time>2022-12-13T11:01:17Z</time>
      </trkpt>
      <trkpt lat="44.78607" lon="5.68206">
        <ele>674</ele>
        <time>2022-12-13T11:01:18Z</time>
      </trkpt>
      <trkpt lat="44.78605" lon="5.6822">
        <ele>675</ele>
        <time>2022-12-13T11:01:20Z</time>
      </trkpt>
      <trkpt lat="44.78594" lon="5.68251">
        <ele>678</ele>
        <time>2022-12-13T11:01:25Z</time>
      </trkpt>
      <trkpt lat="44.78593" lon="5.68265">
        <ele>679</ele>
        <time>2022-12-13T11:01:26Z</time>
      </trkpt>
      <trkpt lat="44.78599" lon="5.68277">
        <ele>680</ele>
        <time>2022-12-13T11:01:28Z</time>
      </trkpt>
      <trkpt lat="44.78609" lon="5.68277">
        <ele>681</ele>
        <time>2022-12-13T11:01:30Z</time>
      </trkpt>
      <trkpt lat="44.78625" lon="5.68266">
        <ele>681</ele>
        <time>2022-12-13T11:01:33Z</time>
      </trkpt>
      <trkpt lat="44.78634" lon="5.68268">
        <ele>682</ele>
        <time>2022-12-13T11:01:35Z</time>
      </trkpt>
      <trkpt lat="44.78645" lon="5.68283">
        <ele>685</ele>
        <time>2022-12-13T11:01:37Z</time>
      </trkpt>
      <trkpt lat="44.78651" lon="5.68298">
        <ele>689</ele>
        <time>2022-12-13T11:01:40Z</time>
      </trkpt>
      <trkpt lat="44.78655" lon="5.68315">
        <ele>692</ele>
        <time>2022-12-13T11:01:42Z</time>
      </trkpt>
      <trkpt lat="44.78653" lon="5.68334">
        <ele>695</ele>
        <time>2022-12-13T11:01:44Z</time>
      </trkpt>
      <trkpt lat="44.78637" lon="5.68404">
        <ele>699</ele>
        <time>2022-12-13T11:01:54Z</time>
      </trkpt>
      <trkpt lat="44.78611" lon="5.68494">
        <ele>703</ele>
        <time>2022-12-13T11:02:06Z</time>
      </trkpt>
      <trkpt lat="44.78594" lon="5.68543">
        <ele>706</ele>
        <time>2022-12-13T11:02:13Z</time>
      </trkpt>
      <trkpt lat="44.78565" lon="5.68595">
        <ele>708</ele>
        <time>2022-12-13T11:02:21Z</time>
      </trkpt>
      <trkpt lat="44.78539" lon="5.68631">
        <ele>710</ele>
        <time>2022-12-13T11:02:28Z</time>
      </trkpt>
      <trkpt lat="44.78536" lon="5.68646">
        <ele>712</ele>
        <time>2022-12-13T11:02:30Z</time>
      </trkpt>
      <trkpt lat="44.78537" lon="5.68661">
        <ele>715</ele>
        <time>2022-12-13T11:02:31Z</time>
      </trkpt>
      <trkpt lat="44.78543" lon="5.68672">
        <ele>717</ele>
        <time>2022-12-13T11:02:33Z</time>
      </trkpt>
      <trkpt lat="44.78554" lon="5.68676">
        <ele>718</ele>
        <time>2022-12-13T11:02:35Z</time>
      </trkpt>
      <trkpt lat="44.78562" lon="5.68676">
        <ele>719</ele>
        <time>2022-12-13T11:02:37Z</time>
      </trkpt>
      <trkpt lat="44.78584" lon="5.68669">
        <ele>720</ele>
        <time>2022-12-13T11:02:41Z</time>
      </trkpt>
      <trkpt lat="44.78603" lon="5.68666">
        <ele>722</ele>
        <time>2022-12-13T11:02:44Z</time>
      </trkpt>
      <trkpt lat="44.78652" lon="5.68666">
        <ele>728</ele>
        <time>2022-12-13T11:02:53Z</time>
      </trkpt>
      <trkpt lat="44.78666" lon="5.68663">
        <ele>730</ele>
        <time>2022-12-13T11:02:55Z</time>
      </trkpt>
      <trkpt lat="44.78682" lon="5.68655">
        <ele>730</ele>
        <time>2022-12-13T11:02:58Z</time>
      </trkpt>
      <trkpt lat="44.78702" lon="5.68637">
        <ele>731</ele>
        <time>2022-12-13T11:03:03Z</time>
      </trkpt>
      <trkpt lat="44.78724" lon="5.68614">
        <ele>731</ele>
        <time>2022-12-13T11:03:07Z</time>
      </trkpt>
      <trkpt lat="44.78739" lon="5.68593">
        <ele>731</ele>
        <time>2022-12-13T11:03:11Z</time>
      </trkpt>
      <trkpt lat="44.78753" lon="5.68569">
        <ele>731</ele>
        <time>2022-12-13T11:03:15Z</time>
      </trkpt>
      <trkpt lat="44.78759" lon="5.68562">
        <ele>731</ele>
        <time>2022-12-13T11:03:16Z</time>
      </trkpt>
      <trkpt lat="44.78765" lon="5.68558">
        <ele>731</ele>
        <time>2022-12-13T11:03:18Z</time>
      </trkpt>
      <trkpt lat="44.78773" lon="5.68559">
        <ele>731</ele>
        <time>2022-12-13T11:03:19Z</time>
      </trkpt>
      <trkpt lat="44.78778" lon="5.68564">
        <ele>732</ele>
        <time>2022-12-13T11:03:20Z</time>
      </trkpt>
      <trkpt lat="44.78785" lon="5.68578">
        <ele>733</ele>
        <time>2022-12-13T11:03:22Z</time>
      </trkpt>
      <trkpt lat="44.78802" lon="5.68651">
        <ele>737</ele>
        <time>2022-12-13T11:03:32Z</time>
      </trkpt>
      <trkpt lat="44.7891" lon="5.69119">
        <ele>742</ele>
        <time>2022-12-13T11:04:34Z</time>
      </trkpt>
      <trkpt lat="44.78929" lon="5.69261">
        <ele>744</ele>
        <time>2022-12-13T11:04:52Z</time>
      </trkpt>
      <trkpt lat="44.78939" lon="5.69307">
        <ele>746</ele>
        <time>2022-12-13T11:04:59Z</time>
      </trkpt>
      <trkpt lat="44.7895" lon="5.69335">
        <ele>747</ele>
        <time>2022-12-13T11:05:03Z</time>
      </trkpt>
      <trkpt lat="44.78967" lon="5.69358">
        <ele>749</ele>
        <time>2022-12-13T11:05:07Z</time>
      </trkpt>
      <trkpt lat="44.7898" lon="5.6937">
        <ele>750</ele>
        <time>2022-12-13T11:05:10Z</time>
      </trkpt>
      <trkpt lat="44.78994" lon="5.69378">
        <ele>750</ele>
        <time>2022-12-13T11:05:12Z</time>
      </trkpt>
      <trkpt lat="44.79046" lon="5.694">
        <ele>753</ele>
        <time>2022-12-13T11:05:22Z</time>
      </trkpt>
      <trkpt lat="44.79059" lon="5.69408">
        <ele>754</ele>
        <time>2022-12-13T11:05:24Z</time>
      </trkpt>
      <trkpt lat="44.79072" lon="5.69428">
        <ele>756</ele>
        <time>2022-12-13T11:05:28Z</time>
      </trkpt>
      <trkpt lat="44.79076" lon="5.69444">
        <ele>756</ele>
        <time>2022-12-13T11:05:30Z</time>
      </trkpt>
      <trkpt lat="44.79066" lon="5.69451">
        <ele>756</ele>
        <time>2022-12-13T11:05:32Z</time>
      </trkpt>
      <trkpt lat="44.79053" lon="5.69465">
        <ele>756</ele>
        <time>2022-12-13T11:05:35Z</time>
      </trkpt>
      <trkpt lat="44.79031" lon="5.69482">
        <ele>756</ele>
        <time>2022-12-13T11:05:39Z</time>
      </trkpt>
      <trkpt lat="44.79011" lon="5.6949">
        <ele>756</ele>
        <time>2022-12-13T11:05:43Z</time>
      </trkpt>
      <trkpt lat="44.78984" lon="5.69495">
        <ele>758</ele>
        <time>2022-12-13T11:05:48Z</time>
      </trkpt>
      <trkpt lat="44.7896" lon="5.69497">
        <ele>760</ele>
        <time>2022-12-13T11:05:52Z</time>
      </trkpt>
      <trkpt lat="44.78944" lon="5.69494">
        <ele>761</ele>
        <time>2022-12-13T11:05:55Z</time>
      </trkpt>
      <trkpt lat="44.78934" lon="5.69495">
        <ele>761</ele>
        <time>2022-12-13T11:05:57Z</time>
      </trkpt>
      <trkpt lat="44.78919" lon="5.69506">
        <ele>763</ele>
        <time>2022-12-13T11:06:00Z</time>
      </trkpt>
      <trkpt lat="44.78902" lon="5.69505">
        <ele>763</ele>
        <time>2022-12-13T11:06:03Z</time>
      </trkpt>
      <trkpt lat="44.78887" lon="5.69501">
        <ele>764</ele>
        <time>2022-12-13T11:06:06Z</time>
      </trkpt>
      <trkpt lat="44.78863" lon="5.69511">
        <ele>764</ele>
        <time>2022-12-13T11:06:10Z</time>
      </trkpt>
      <trkpt lat="44.78856" lon="5.69519">
        <ele>764</ele>
        <time>2022-12-13T11:06:12Z</time>
      </trkpt>
      <trkpt lat="44.78844" lon="5.69538">
        <ele>765</ele>
        <time>2022-12-13T11:06:15Z</time>
      </trkpt>
      <trkpt lat="44.78833" lon="5.69545">
        <ele>765</ele>
        <time>2022-12-13T11:06:17Z</time>
      </trkpt>
      <trkpt lat="44.78796" lon="5.69558">
        <ele>767</ele>
        <time>2022-12-13T11:06:24Z</time>
      </trkpt>
      <trkpt lat="44.78727" lon="5.69577">
        <ele>771</ele>
        <time>2022-12-13T11:06:36Z</time>
      </trkpt>
      <trkpt lat="44.78697" lon="5.6958">
        <ele>772</ele>
        <time>2022-12-13T11:06:42Z</time>
      </trkpt>
      <trkpt lat="44.78642" lon="5.69583">
        <ele>773</ele>
        <time>2022-12-13T11:06:51Z</time>
      </trkpt>
      <trkpt lat="44.78542" lon="5.69595">
        <ele>773</ele>
        <time>2022-12-13T11:07:09Z</time>
      </trkpt>
      <trkpt lat="44.78523" lon="5.69597">
        <ele>773</ele>
        <time>2022-12-13T11:07:13Z</time>
      </trkpt>
      <trkpt lat="44.78443" lon="5.69684">
        <ele>773</ele>
        <time>2022-12-13T11:07:31Z</time>
      </trkpt>
      <trkpt lat="44.78413" lon="5.69721">
        <ele>773</ele>
        <time>2022-12-13T11:07:38Z</time>
      </trkpt>
      <trkpt lat="44.7839" lon="5.69759">
        <ele>774</ele>
        <time>2022-12-13T11:07:44Z</time>
      </trkpt>
      <trkpt lat="44.78324" lon="5.6995">
        <ele>780</ele>
        <time>2022-12-13T11:08:11Z</time>
      </trkpt>
      <trkpt lat="44.78316" lon="5.69991">
        <ele>780</ele>
        <time>2022-12-13T11:08:16Z</time>
      </trkpt>
      <trkpt lat="44.78314" lon="5.69999">
        <ele>781</ele>
        <time>2022-12-13T11:08:17Z</time>
      </trkpt>
      <trkpt lat="44.78304" lon="5.70125">
        <ele>784</ele>
        <time>2022-12-13T11:08:33Z</time>
      </trkpt>
      <trkpt lat="44.78304" lon="5.70161">
        <ele>785</ele>
        <time>2022-12-13T11:08:38Z</time>
      </trkpt>
      <trkpt lat="44.78317" lon="5.7025">
        <ele>789</ele>
        <time>2022-12-13T11:08:49Z</time>
      </trkpt>
      <trkpt lat="44.78308" lon="5.70292">
        <ele>791</ele>
        <time>2022-12-13T11:08:55Z</time>
      </trkpt>
      <trkpt lat="44.78269" lon="5.70352">
        <ele>795</ele>
        <time>2022-12-13T11:09:05Z</time>
      </trkpt>
      <trkpt lat="44.78215" lon="5.70512">
        <ele>808</ele>
        <time>2022-12-13T11:09:28Z</time>
      </trkpt>
      <trkpt lat="44.78191" lon="5.70592">
        <ele>808</ele>
        <time>2022-12-13T11:09:39Z</time>
      </trkpt>
      <trkpt lat="44.78188" lon="5.70625">
        <ele>808</ele>
        <time>2022-12-13T11:09:43Z</time>
      </trkpt>
      <trkpt lat="44.78189" lon="5.70652">
        <ele>808</ele>
        <time>2022-12-13T11:09:46Z</time>
      </trkpt>
      <trkpt lat="44.78209" lon="5.70743">
        <ele>808</ele>
        <time>2022-12-13T11:09:58Z</time>
      </trkpt>
      <trkpt lat="44.78238" lon="5.7081">
        <ele>812</ele>
        <time>2022-12-13T11:10:08Z</time>
      </trkpt>
      <trkpt lat="44.78297" lon="5.70921">
        <ele>816</ele>
        <time>2022-12-13T11:10:26Z</time>
      </trkpt>
      <trkpt lat="44.78313" lon="5.70972">
        <ele>815</ele>
        <time>2022-12-13T11:10:33Z</time>
      </trkpt>
      <trkpt lat="44.78315" lon="5.70992">
        <ele>816</ele>
        <time>2022-12-13T11:10:35Z</time>
      </trkpt>
      <trkpt lat="44.78314" lon="5.71009">
        <ele>816</ele>
        <time>2022-12-13T11:10:37Z</time>
      </trkpt>
      <trkpt lat="44.78311" lon="5.71027">
        <ele>816</ele>
        <time>2022-12-13T11:10:40Z</time>
      </trkpt>
      <trkpt lat="44.78242" lon="5.71236">
        <ele>829</ele>
        <time>2022-12-13T11:11:09Z</time>
      </trkpt>
      <trkpt lat="44.7823" lon="5.71288">
        <ele>832</ele>
        <time>2022-12-13T11:11:16Z</time>
      </trkpt>
      <trkpt lat="44.78236" lon="5.71347">
        <ele>833</ele>
        <time>2022-12-13T11:11:23Z</time>
      </trkpt>
      <trkpt lat="44.78238" lon="5.71612">
        <ele>841</ele>
        <time>2022-12-13T11:11:57Z</time>
      </trkpt>
      <trkpt lat="44.78235" lon="5.71661">
        <ele>842</ele>
        <time>2022-12-13T11:12:03Z</time>
      </trkpt>
      <trkpt lat="44.78223" lon="5.71703">
        <ele>841</ele>
        <time>2022-12-13T11:12:09Z</time>
      </trkpt>
      <trkpt lat="44.78176" lon="5.71819">
        <ele>838</ele>
        <time>2022-12-13T11:12:25Z</time>
      </trkpt>
      <trkpt lat="44.78161" lon="5.71855">
        <ele>836</ele>
        <time>2022-12-13T11:12:31Z</time>
      </trkpt>
      <trkpt lat="44.78107" lon="5.71966">
        <ele>831</ele>
        <time>2022-12-13T11:12:48Z</time>
      </trkpt>
      <trkpt lat="44.78096" lon="5.71981">
        <ele>831</ele>
        <time>2022-12-13T11:12:50Z</time>
      </trkpt>
      <trkpt lat="44.78061" lon="5.72007">
        <ele>830</ele>
        <time>2022-12-13T11:12:58Z</time>
      </trkpt>
      <trkpt lat="44.77999" lon="5.7206">
        <ele>824</ele>
        <time>2022-12-13T11:13:10Z</time>
      </trkpt>
      <trkpt lat="44.77985" lon="5.72076">
        <ele>825</ele>
        <time>2022-12-13T11:13:14Z</time>
      </trkpt>
      <trkpt lat="44.77975" lon="5.72115">
        <ele>825</ele>
        <time>2022-12-13T11:13:19Z</time>
      </trkpt>
      <trkpt lat="44.77975" lon="5.7214">
        <ele>824</ele>
        <time>2022-12-13T11:13:22Z</time>
      </trkpt>
      <trkpt lat="44.7798" lon="5.72159">
        <ele>823</ele>
        <time>2022-12-13T11:13:25Z</time>
      </trkpt>
      <trkpt lat="44.77992" lon="5.72183">
        <ele>821</ele>
        <time>2022-12-13T11:13:28Z</time>
      </trkpt>
      <trkpt lat="44.78012" lon="5.72216">
        <ele>818</ele>
        <time>2022-12-13T11:13:34Z</time>
      </trkpt>
      <trkpt lat="44.78024" lon="5.72228">
        <ele>817</ele>
        <time>2022-12-13T11:13:36Z</time>
      </trkpt>
      <trkpt lat="44.78061" lon="5.72248">
        <ele>813</ele>
        <time>2022-12-13T11:13:43Z</time>
      </trkpt>
      <trkpt lat="44.78071" lon="5.72261">
        <ele>812</ele>
        <time>2022-12-13T11:13:46Z</time>
      </trkpt>
      <trkpt lat="44.7808" lon="5.72283">
        <ele>811</ele>
        <time>2022-12-13T11:13:49Z</time>
      </trkpt>
      <trkpt lat="44.78094" lon="5.72347">
        <ele>811</ele>
        <time>2022-12-13T11:13:58Z</time>
      </trkpt>
      <trkpt lat="44.781" lon="5.72364">
        <ele>811</ele>
        <time>2022-12-13T11:14:00Z</time>
      </trkpt>
      <trkpt lat="44.78114" lon="5.72393">
        <ele>810</ele>
        <time>2022-12-13T11:14:04Z</time>
      </trkpt>
      <trkpt lat="44.78121" lon="5.72414">
        <ele>810</ele>
        <time>2022-12-13T11:14:07Z</time>
      </trkpt>
      <trkpt lat="44.78124" lon="5.72473">
        <ele>811</ele>
        <time>2022-12-13T11:14:15Z</time>
      </trkpt>
      <trkpt lat="44.78131" lon="5.72492">
        <ele>811</ele>
        <time>2022-12-13T11:14:17Z</time>
      </trkpt>
      <trkpt lat="44.78201" lon="5.72584">
        <ele>803</ele>
        <time>2022-12-13T11:14:34Z</time>
      </trkpt>
      <trkpt lat="44.78209" lon="5.72599">
        <ele>802</ele>
        <time>2022-12-13T11:14:37Z</time>
      </trkpt>
      <trkpt lat="44.78213" lon="5.72616">
        <ele>800</ele>
        <time>2022-12-13T11:14:39Z</time>
      </trkpt>
      <trkpt lat="44.78212" lon="5.72636">
        <ele>799</ele>
        <time>2022-12-13T11:14:42Z</time>
      </trkpt>
      <trkpt lat="44.78207" lon="5.72657">
        <ele>798</ele>
        <time>2022-12-13T11:14:44Z</time>
      </trkpt>
      <trkpt lat="44.7819" lon="5.72694">
        <ele>797</ele>
        <time>2022-12-13T11:14:50Z</time>
      </trkpt>
      <trkpt lat="44.78179" lon="5.7271">
        <ele>796</ele>
        <time>2022-12-13T11:14:53Z</time>
      </trkpt>
      <trkpt lat="44.78143" lon="5.72743">
        <ele>798</ele>
        <time>2022-12-13T11:15:00Z</time>
      </trkpt>
      <trkpt lat="44.78125" lon="5.72768">
        <ele>798</ele>
        <time>2022-12-13T11:15:05Z</time>
      </trkpt>
      <trkpt lat="44.78112" lon="5.72796">
        <ele>796</ele>
        <time>2022-12-13T11:15:09Z</time>
      </trkpt>
      <trkpt lat="44.78082" lon="5.72877">
        <ele>792</ele>
        <time>2022-12-13T11:15:21Z</time>
      </trkpt>
      <trkpt lat="44.78068" lon="5.72926">
        <ele>790</ele>
        <time>2022-12-13T11:15:27Z</time>
      </trkpt>
      <trkpt lat="44.78062" lon="5.72962">
        <ele>790</ele>
        <time>2022-12-13T11:15:32Z</time>
      </trkpt>
      <trkpt lat="44.7806" lon="5.73002">
        <ele>790</ele>
        <time>2022-12-13T11:15:37Z</time>
      </trkpt>
      <trkpt lat="44.78064" lon="5.73038">
        <ele>789</ele>
        <time>2022-12-13T11:15:42Z</time>
      </trkpt>
      <trkpt lat="44.78104" lon="5.73179">
        <ele>792</ele>
        <time>2022-12-13T11:16:01Z</time>
      </trkpt>
      <trkpt lat="44.78106" lon="5.73193">
        <ele>793</ele>
        <time>2022-12-13T11:16:03Z</time>
      </trkpt>
      <trkpt lat="44.78106" lon="5.73209">
        <ele>794</ele>
        <time>2022-12-13T11:16:05Z</time>
      </trkpt>
      <trkpt lat="44.78102" lon="5.7323">
        <ele>795</ele>
        <time>2022-12-13T11:16:07Z</time>
      </trkpt>
      <trkpt lat="44.78098" lon="5.73266">
        <ele>797</ele>
        <time>2022-12-13T11:16:12Z</time>
      </trkpt>
      <trkpt lat="44.78097" lon="5.73289">
        <ele>798</ele>
        <time>2022-12-13T11:16:15Z</time>
      </trkpt>
      <trkpt lat="44.78126" lon="5.73281">
        <ele>797</ele>
        <time>2022-12-13T11:16:20Z</time>
      </trkpt>
      <trkpt lat="44.78162" lon="5.73277">
        <ele>796</ele>
        <time>2022-12-13T11:16:27Z</time>
      </trkpt>
      <trkpt lat="44.78205" lon="5.73289">
        <ele>793</ele>
        <time>2022-12-13T11:16:34Z</time>
      </trkpt>
      <trkpt lat="44.78249" lon="5.73306">
        <ele>789</ele>
        <time>2022-12-13T11:16:43Z</time>
      </trkpt>
      <trkpt lat="44.78259" lon="5.73313">
        <ele>789</ele>
        <time>2022-12-13T11:16:45Z</time>
      </trkpt>
      <trkpt lat="44.78294" lon="5.73349">
        <ele>791</ele>
        <time>2022-12-13T11:16:52Z</time>
      </trkpt>
      <trkpt lat="44.78308" lon="5.73358">
        <ele>792</ele>
        <time>2022-12-13T11:16:55Z</time>
      </trkpt>
      <trkpt lat="44.7832" lon="5.73359">
        <ele>793</ele>
        <time>2022-12-13T11:16:57Z</time>
      </trkpt>
      <trkpt lat="44.78345" lon="5.73355">
        <ele>793</ele>
        <time>2022-12-13T11:17:02Z</time>
      </trkpt>
      <trkpt lat="44.78373" lon="5.73355">
        <ele>793</ele>
        <time>2022-12-13T11:17:07Z</time>
      </trkpt>
      <trkpt lat="44.78397" lon="5.73358">
        <ele>794</ele>
        <time>2022-12-13T11:17:11Z</time>
      </trkpt>
      <trkpt lat="44.78429" lon="5.73365">
        <ele>793</ele>
        <time>2022-12-13T11:17:17Z</time>
      </trkpt>
      <trkpt lat="44.78484" lon="5.73385">
        <ele>789</ele>
        <time>2022-12-13T11:17:27Z</time>
      </trkpt>
      <trkpt lat="44.78518" lon="5.73406">
        <ele>787</ele>
        <time>2022-12-13T11:17:33Z</time>
      </trkpt>
      <trkpt lat="44.78548" lon="5.73432">
        <ele>786</ele>
        <time>2022-12-13T11:17:40Z</time>
      </trkpt>
      <trkpt lat="44.78559" lon="5.73436">
        <ele>784</ele>
        <time>2022-12-13T11:17:42Z</time>
      </trkpt>
      <trkpt lat="44.78603" lon="5.73437">
        <ele>779</ele>
        <time>2022-12-13T11:17:50Z</time>
      </trkpt>
      <trkpt lat="44.78615" lon="5.73434">
        <ele>778</ele>
        <time>2022-12-13T11:17:52Z</time>
      </trkpt>
      <trkpt lat="44.78629" lon="5.7343">
        <ele>776</ele>
        <time>2022-12-13T11:17:54Z</time>
      </trkpt>
      <trkpt lat="44.7864" lon="5.7342">
        <ele>775</ele>
        <time>2022-12-13T11:17:57Z</time>
      </trkpt>
      <trkpt lat="44.78649" lon="5.7341">
        <ele>774</ele>
        <time>2022-12-13T11:17:59Z</time>
      </trkpt>
      <trkpt lat="44.7867" lon="5.73362">
        <ele>772</ele>
        <time>2022-12-13T11:18:06Z</time>
      </trkpt>
      <trkpt lat="44.78706" lon="5.733">
        <ele>769</ele>
        <time>2022-12-13T11:18:16Z</time>
      </trkpt>
      <trkpt lat="44.78717" lon="5.7327">
        <ele>768</ele>
        <time>2022-12-13T11:18:20Z</time>
      </trkpt>
      <trkpt lat="44.78724" lon="5.73258">
        <ele>768</ele>
        <time>2022-12-13T11:18:22Z</time>
      </trkpt>
      <trkpt lat="44.78732" lon="5.73254">
        <ele>767</ele>
        <time>2022-12-13T11:18:24Z</time>
      </trkpt>
      <trkpt lat="44.78744" lon="5.73252">
        <ele>766</ele>
        <time>2022-12-13T11:18:26Z</time>
      </trkpt>
      <trkpt lat="44.78876" lon="5.73245">
        <ele>759</ele>
        <time>2022-12-13T11:18:49Z</time>
      </trkpt>
      <trkpt lat="44.78898" lon="5.73248">
        <ele>760</ele>
        <time>2022-12-13T11:18:53Z</time>
      </trkpt>
      <trkpt lat="44.78925" lon="5.73255">
        <ele>760</ele>
        <time>2022-12-13T11:18:58Z</time>
      </trkpt>
      <trkpt lat="44.78933" lon="5.7325">
        <ele>760</ele>
        <time>2022-12-13T11:19:00Z</time>
      </trkpt>
      <trkpt lat="44.78938" lon="5.7324">
        <ele>760</ele>
        <time>2022-12-13T11:19:01Z</time>
      </trkpt>
      <trkpt lat="44.78943" lon="5.73224">
        <ele>759</ele>
        <time>2022-12-13T11:19:03Z</time>
      </trkpt>
      <trkpt lat="44.78952" lon="5.73098">
        <ele>753</ele>
        <time>2022-12-13T11:19:19Z</time>
      </trkpt>
      <trkpt lat="44.78957" lon="5.73072">
        <ele>752</ele>
        <time>2022-12-13T11:19:23Z</time>
      </trkpt>
      <trkpt lat="44.78964" lon="5.73051">
        <ele>751</ele>
        <time>2022-12-13T11:19:26Z</time>
      </trkpt>
      <trkpt lat="44.78973" lon="5.73034">
        <ele>750</ele>
        <time>2022-12-13T11:19:28Z</time>
      </trkpt>
      <trkpt lat="44.78985" lon="5.73016">
        <ele>748</ele>
        <time>2022-12-13T11:19:31Z</time>
      </trkpt>
      <trkpt lat="44.79004" lon="5.72995">
        <ele>746</ele>
        <time>2022-12-13T11:19:36Z</time>
      </trkpt>
      <trkpt lat="44.79032" lon="5.72975">
        <ele>745</ele>
        <time>2022-12-13T11:19:41Z</time>
      </trkpt>
      <trkpt lat="44.79054" lon="5.72963">
        <ele>744</ele>
        <time>2022-12-13T11:19:46Z</time>
      </trkpt>
      <trkpt lat="44.79064" lon="5.72962">
        <ele>744</ele>
        <time>2022-12-13T11:19:47Z</time>
      </trkpt>
      <trkpt lat="44.79142" lon="5.72993">
        <ele>740</ele>
        <time>2022-12-13T11:20:02Z</time>
      </trkpt>
      <trkpt lat="44.79147" lon="5.72997">
        <ele>740</ele>
        <time>2022-12-13T11:20:03Z</time>
      </trkpt>
      <trkpt lat="44.79157" lon="5.73019">
        <ele>740</ele>
        <time>2022-12-13T11:20:06Z</time>
      </trkpt>
      <trkpt lat="44.79169" lon="5.73041">
        <ele>741</ele>
        <time>2022-12-13T11:20:10Z</time>
      </trkpt>
      <trkpt lat="44.79184" lon="5.73056">
        <ele>743</ele>
        <time>2022-12-13T11:20:13Z</time>
      </trkpt>
      <trkpt lat="44.79197" lon="5.73059">
        <ele>745</ele>
        <time>2022-12-13T11:20:15Z</time>
      </trkpt>
      <trkpt lat="44.79207" lon="5.73057">
        <ele>746</ele>
        <time>2022-12-13T11:20:17Z</time>
      </trkpt>
      <trkpt lat="44.79219" lon="5.7305">
        <ele>746</ele>
        <time>2022-12-13T11:20:19Z</time>
      </trkpt>
      <trkpt lat="44.79253" lon="5.73002">
        <ele>743</ele>
        <time>2022-12-13T11:20:28Z</time>
      </trkpt>
      <trkpt lat="44.79268" lon="5.72986">
        <ele>745</ele>
        <time>2022-12-13T11:20:31Z</time>
      </trkpt>
      <trkpt lat="44.79283" lon="5.72974">
        <ele>748</ele>
        <time>2022-12-13T11:20:34Z</time>
      </trkpt>
      <trkpt lat="44.79292" lon="5.72963">
        <ele>749</ele>
        <time>2022-12-13T11:20:36Z</time>
      </trkpt>
      <trkpt lat="44.79339" lon="5.72863">
        <ele>747</ele>
        <time>2022-12-13T11:20:52Z</time>
      </trkpt>
      <trkpt lat="44.79356" lon="5.72837">
        <ele>747</ele>
        <time>2022-12-13T11:20:56Z</time>
      </trkpt>
      <trkpt lat="44.79371" lon="5.72828">
        <ele>747</ele>
        <time>2022-12-13T11:20:59Z</time>
      </trkpt>
      <trkpt lat="44.7941" lon="5.72823">
        <ele>749</ele>
        <time>2022-12-13T11:21:06Z</time>
      </trkpt>
      <trkpt lat="44.79465" lon="5.72795">
        <ele>747</ele>
        <time>2022-12-13T11:21:16Z</time>
      </trkpt>
      <trkpt lat="44.79478" lon="5.72791">
        <ele>747</ele>
        <time>2022-12-13T11:21:19Z</time>
      </trkpt>
      <trkpt lat="44.7949" lon="5.72792">
        <ele>748</ele>
        <time>2022-12-13T11:21:21Z</time>
      </trkpt>
      <trkpt lat="44.79498" lon="5.72795">
        <ele>748</ele>
        <time>2022-12-13T11:21:22Z</time>
      </trkpt>
      <trkpt lat="44.7951" lon="5.72806">
        <ele>749</ele>
        <time>2022-12-13T11:21:25Z</time>
      </trkpt>
      <trkpt lat="44.79577" lon="5.7291">
        <ele>751</ele>
        <time>2022-12-13T11:21:43Z</time>
      </trkpt>
      <trkpt lat="44.79586" lon="5.72918">
        <ele>751</ele>
        <time>2022-12-13T11:21:44Z</time>
      </trkpt>
      <trkpt lat="44.79594" lon="5.72946">
        <ele>752</ele>
        <time>2022-12-13T11:21:48Z</time>
      </trkpt>
      <trkpt lat="44.79603" lon="5.72959">
        <ele>752</ele>
        <time>2022-12-13T11:21:51Z</time>
      </trkpt>
      <trkpt lat="44.7973" lon="5.73075">
        <ele>758</ele>
        <time>2022-12-13T11:22:17Z</time>
      </trkpt>
      <trkpt lat="44.79739" lon="5.73092">
        <ele>758</ele>
        <time>2022-12-13T11:22:20Z</time>
      </trkpt>
      <trkpt lat="44.7974" lon="5.73111">
        <ele>759</ele>
        <time>2022-12-13T11:22:23Z</time>
      </trkpt>
      <trkpt lat="44.79729" lon="5.73185">
        <ele>765</ele>
        <time>2022-12-13T11:22:32Z</time>
      </trkpt>
      <trkpt lat="44.79727" lon="5.7321">
        <ele>768</ele>
        <time>2022-12-13T11:22:35Z</time>
      </trkpt>
      <trkpt lat="44.79728" lon="5.73228">
        <ele>769</ele>
        <time>2022-12-13T11:22:38Z</time>
      </trkpt>
      <trkpt lat="44.79734" lon="5.73252">
        <ele>771</ele>
        <time>2022-12-13T11:22:41Z</time>
      </trkpt>
      <trkpt lat="44.79779" lon="5.73422">
        <ele>785</ele>
        <time>2022-12-13T11:23:04Z</time>
      </trkpt>
      <trkpt lat="44.79781" lon="5.73483">
        <ele>792</ele>
        <time>2022-12-13T11:23:11Z</time>
      </trkpt>
      <trkpt lat="44.79783" lon="5.73492">
        <ele>793</ele>
        <time>2022-12-13T11:23:13Z</time>
      </trkpt>
      <trkpt lat="44.79789" lon="5.73496">
        <ele>794</ele>
        <time>2022-12-13T11:23:14Z</time>
      </trkpt>
      <trkpt lat="44.79796" lon="5.73497">
        <ele>794</ele>
        <time>2022-12-13T11:23:15Z</time>
      </trkpt>
      <trkpt lat="44.79804" lon="5.73494">
        <ele>794</ele>
        <time>2022-12-13T11:23:16Z</time>
      </trkpt>
      <trkpt lat="44.79832" lon="5.73469">
        <ele>791</ele>
        <time>2022-12-13T11:23:22Z</time>
      </trkpt>
      <trkpt lat="44.79866" lon="5.7345">
        <ele>792</ele>
        <time>2022-12-13T11:23:29Z</time>
      </trkpt>
      <trkpt lat="44.79883" lon="5.73443">
        <ele>794</ele>
        <time>2022-12-13T11:23:32Z</time>
      </trkpt>
      <trkpt lat="44.79937" lon="5.73434">
        <ele>800</ele>
        <time>2022-12-13T11:23:42Z</time>
      </trkpt>
      <trkpt lat="44.79947" lon="5.73432">
        <ele>801</ele>
        <time>2022-12-13T11:23:43Z</time>
      </trkpt>
      <trkpt lat="44.80005" lon="5.73396">
        <ele>806</ele>
        <time>2022-12-13T11:23:55Z</time>
      </trkpt>
      <trkpt lat="44.80021" lon="5.7339">
        <ele>806</ele>
        <time>2022-12-13T11:23:58Z</time>
      </trkpt>
      <trkpt lat="44.80038" lon="5.73387">
        <ele>806</ele>
        <time>2022-12-13T11:24:01Z</time>
      </trkpt>
      <trkpt lat="44.8005" lon="5.73388">
        <ele>806</ele>
        <time>2022-12-13T11:24:03Z</time>
      </trkpt>
      <trkpt lat="44.80061" lon="5.73391">
        <ele>806</ele>
        <time>2022-12-13T11:24:05Z</time>
      </trkpt>
      <trkpt lat="44.80092" lon="5.73406">
        <ele>807</ele>
        <time>2022-12-13T11:24:11Z</time>
      </trkpt>
      <trkpt lat="44.80192" lon="5.73465">
        <ele>811</ele>
        <time>2022-12-13T11:24:30Z</time>
      </trkpt>
      <trkpt lat="44.80292" lon="5.73529">
        <ele>805</ele>
        <time>2022-12-13T11:24:50Z</time>
      </trkpt>
      <trkpt lat="44.80314" lon="5.73529">
        <ele>803</ele>
        <time>2022-12-13T11:24:53Z</time>
      </trkpt>
      <trkpt lat="44.80323" lon="5.73525">
        <ele>803</ele>
        <time>2022-12-13T11:24:55Z</time>
      </trkpt>
      <trkpt lat="44.80468" lon="5.73399">
        <ele>793</ele>
        <time>2022-12-13T11:25:25Z</time>
      </trkpt>
      <trkpt lat="44.80479" lon="5.73386">
        <ele>791</ele>
        <time>2022-12-13T11:25:28Z</time>
      </trkpt>
      <trkpt lat="44.80488" lon="5.73367">
        <ele>790</ele>
        <time>2022-12-13T11:25:31Z</time>
      </trkpt>
      <trkpt lat="44.80495" lon="5.73359">
        <ele>789</ele>
        <time>2022-12-13T11:25:33Z</time>
      </trkpt>
      <trkpt lat="44.805" lon="5.7336">
        <ele>788</ele>
        <time>2022-12-13T11:25:33Z</time>
      </trkpt>
      <trkpt lat="44.80503" lon="5.73365">
        <ele>787</ele>
        <time>2022-12-13T11:25:34Z</time>
      </trkpt>
      <trkpt lat="44.80458" lon="5.7353">
        <ele>784</ele>
        <time>2022-12-13T11:25:57Z</time>
      </trkpt>
      <trkpt lat="44.80433" lon="5.73612">
        <ele>784</ele>
        <time>2022-12-13T11:26:08Z</time>
      </trkpt>
      <trkpt lat="44.80386" lon="5.73755">
        <ele>783</ele>
        <time>2022-12-13T11:26:28Z</time>
      </trkpt>
      <trkpt lat="44.80374" lon="5.73786">
        <ele>780</ele>
        <time>2022-12-13T11:26:32Z</time>
      </trkpt>
      <trkpt lat="44.80322" lon="5.73878">
        <ele>776</ele>
        <time>2022-12-13T11:26:47Z</time>
      </trkpt>
      <trkpt lat="44.8032" lon="5.73888">
        <ele>776</ele>
        <time>2022-12-13T11:26:48Z</time>
      </trkpt>
      <trkpt lat="44.80322" lon="5.73899">
        <ele>774</ele>
        <time>2022-12-13T11:26:50Z</time>
      </trkpt>
      <trkpt lat="44.80328" lon="5.73907">
        <ele>772</ele>
        <time>2022-12-13T11:26:51Z</time>
      </trkpt>
      <trkpt lat="44.80337" lon="5.73911">
        <ele>770</ele>
        <time>2022-12-13T11:26:53Z</time>
      </trkpt>
      <trkpt lat="44.80345" lon="5.7391">
        <ele>769</ele>
        <time>2022-12-13T11:26:54Z</time>
      </trkpt>
      <trkpt lat="44.8042" lon="5.73872">
        <ele>762</ele>
        <time>2022-12-13T11:27:09Z</time>
      </trkpt>
      <trkpt lat="44.80428" lon="5.73869">
        <ele>762</ele>
        <time>2022-12-13T11:27:10Z</time>
      </trkpt>
      <trkpt lat="44.80437" lon="5.7387">
        <ele>761</ele>
        <time>2022-12-13T11:27:12Z</time>
      </trkpt>
      <trkpt lat="44.80442" lon="5.73873">
        <ele>760</ele>
        <time>2022-12-13T11:27:13Z</time>
      </trkpt>
      <trkpt lat="44.80445" lon="5.73882">
        <ele>759</ele>
        <time>2022-12-13T11:27:14Z</time>
      </trkpt>
      <trkpt lat="44.80445" lon="5.73891">
        <ele>758</ele>
        <time>2022-12-13T11:27:15Z</time>
      </trkpt>
      <trkpt lat="44.80442" lon="5.73898">
        <ele>757</ele>
        <time>2022-12-13T11:27:16Z</time>
      </trkpt>
      <trkpt lat="44.80435" lon="5.73903">
        <ele>757</ele>
        <time>2022-12-13T11:27:17Z</time>
      </trkpt>
      <trkpt lat="44.80412" lon="5.73913">
        <ele>757</ele>
        <time>2022-12-13T11:27:22Z</time>
      </trkpt>
      <trkpt lat="44.80402" lon="5.73919">
        <ele>758</ele>
        <time>2022-12-13T11:27:24Z</time>
      </trkpt>
      <trkpt lat="44.80387" lon="5.73938">
        <ele>760</ele>
        <time>2022-12-13T11:27:27Z</time>
      </trkpt>
      <trkpt lat="44.80369" lon="5.73979">
        <ele>760</ele>
        <time>2022-12-13T11:27:33Z</time>
      </trkpt>
      <trkpt lat="44.80367" lon="5.74016">
        <ele>757</ele>
        <time>2022-12-13T11:27:38Z</time>
      </trkpt>
      <trkpt lat="44.80369" lon="5.7403">
        <ele>755</ele>
        <time>2022-12-13T11:27:40Z</time>
      </trkpt>
      <trkpt lat="44.80373" lon="5.74042">
        <ele>753</ele>
        <time>2022-12-13T11:27:41Z</time>
      </trkpt>
      <trkpt lat="44.80386" lon="5.7406">
        <ele>749</ele>
        <time>2022-12-13T11:27:45Z</time>
      </trkpt>
      <trkpt lat="44.80395" lon="5.74067">
        <ele>748</ele>
        <time>2022-12-13T11:27:47Z</time>
      </trkpt>
      <trkpt lat="44.80417" lon="5.74072">
        <ele>745</ele>
        <time>2022-12-13T11:27:50Z</time>
      </trkpt>
      <trkpt lat="44.80427" lon="5.7407">
        <ele>744</ele>
        <time>2022-12-13T11:27:52Z</time>
      </trkpt>
      <trkpt lat="44.80437" lon="5.74065">
        <ele>744</ele>
        <time>2022-12-13T11:27:54Z</time>
      </trkpt>
      <trkpt lat="44.80449" lon="5.74055">
        <ele>744</ele>
        <time>2022-12-13T11:27:57Z</time>
      </trkpt>
      <trkpt lat="44.80514" lon="5.73975">
        <ele>744</ele>
        <time>2022-12-13T11:28:12Z</time>
      </trkpt>
      <trkpt lat="44.80519" lon="5.73972">
        <ele>744</ele>
        <time>2022-12-13T11:28:13Z</time>
      </trkpt>
      <trkpt lat="44.80525" lon="5.73972">
        <ele>743</ele>
        <time>2022-12-13T11:28:14Z</time>
      </trkpt>
      <trkpt lat="44.80529" lon="5.73979">
        <ele>742</ele>
        <time>2022-12-13T11:28:15Z</time>
      </trkpt>
      <trkpt lat="44.80532" lon="5.7399">
        <ele>740</ele>
        <time>2022-12-13T11:28:17Z</time>
      </trkpt>
      <trkpt lat="44.80533" lon="5.73997">
        <ele>739</ele>
        <time>2022-12-13T11:28:18Z</time>
      </trkpt>
      <trkpt lat="44.8053" lon="5.74008">
        <ele>739</ele>
        <time>2022-12-13T11:28:19Z</time>
      </trkpt>
      <trkpt lat="44.80525" lon="5.74018">
        <ele>739</ele>
        <time>2022-12-13T11:28:21Z</time>
      </trkpt>
      <trkpt lat="44.80486" lon="5.74064">
        <ele>740</ele>
        <time>2022-12-13T11:28:30Z</time>
      </trkpt>
      <trkpt lat="44.80479" lon="5.74077">
        <ele>739</ele>
        <time>2022-12-13T11:28:32Z</time>
      </trkpt>
      <trkpt lat="44.80481" lon="5.74095">
        <ele>738</ele>
        <time>2022-12-13T11:28:34Z</time>
      </trkpt>
      <trkpt lat="44.80484" lon="5.74101">
        <ele>737</ele>
        <time>2022-12-13T11:28:35Z</time>
      </trkpt>
      <trkpt lat="44.80493" lon="5.74106">
        <ele>736</ele>
        <time>2022-12-13T11:28:37Z</time>
      </trkpt>
      <trkpt lat="44.80544" lon="5.74117">
        <ele>734</ele>
        <time>2022-12-13T11:28:46Z</time>
      </trkpt>
      <trkpt lat="44.80587" lon="5.74125">
        <ele>734</ele>
        <time>2022-12-13T11:28:54Z</time>
      </trkpt>
      <trkpt lat="44.80594" lon="5.74127">
        <ele>735</ele>
        <time>2022-12-13T11:28:55Z</time>
      </trkpt>
      <trkpt lat="44.80601" lon="5.74125">
        <ele>737</ele>
        <time>2022-12-13T11:28:56Z</time>
      </trkpt>
      <trkpt lat="44.80607" lon="5.74121">
        <ele>738</ele>
        <time>2022-12-13T11:28:57Z</time>
      </trkpt>
      <trkpt lat="44.80626" lon="5.74081">
        <ele>736</ele>
        <time>2022-12-13T11:29:03Z</time>
      </trkpt>
      <trkpt lat="44.80644" lon="5.74068">
        <ele>736</ele>
        <time>2022-12-13T11:29:07Z</time>
      </trkpt>
      <trkpt lat="44.80759" lon="5.73989">
        <ele>734</ele>
        <time>2022-12-13T11:29:30Z</time>
      </trkpt>
      <trkpt lat="44.80776" lon="5.73984">
        <ele>735</ele>
        <time>2022-12-13T11:29:33Z</time>
      </trkpt>
      <trkpt lat="44.80789" lon="5.73984">
        <ele>736</ele>
        <time>2022-12-13T11:29:35Z</time>
      </trkpt>
      <trkpt lat="44.80884" lon="5.73999">
        <ele>744</ele>
        <time>2022-12-13T11:29:52Z</time>
      </trkpt>
      <trkpt lat="44.80927" lon="5.74003">
        <ele>748</ele>
        <time>2022-12-13T11:30:00Z</time>
      </trkpt>
      <trkpt lat="44.80937" lon="5.74">
        <ele>748</ele>
        <time>2022-12-13T11:30:02Z</time>
      </trkpt>
      <trkpt lat="44.80945" lon="5.73995">
        <ele>749</ele>
        <time>2022-12-13T11:30:03Z</time>
      </trkpt>
      <trkpt lat="44.8095" lon="5.73988">
        <ele>749</ele>
        <time>2022-12-13T11:30:04Z</time>
      </trkpt>
      <trkpt lat="44.80957" lon="5.73974">
        <ele>749</ele>
        <time>2022-12-13T11:30:07Z</time>
      </trkpt>
      <trkpt lat="44.80959" lon="5.73952">
        <ele>748</ele>
        <time>2022-12-13T11:30:09Z</time>
      </trkpt>
      <trkpt lat="44.80961" lon="5.73906">
        <ele>746</ele>
        <time>2022-12-13T11:30:15Z</time>
      </trkpt>
      <trkpt lat="44.80965" lon="5.73897">
        <ele>746</ele>
        <time>2022-12-13T11:30:17Z</time>
      </trkpt>
      <trkpt lat="44.80978" lon="5.73886">
        <ele>748</ele>
        <time>2022-12-13T11:30:19Z</time>
      </trkpt>
      <trkpt lat="44.80986" lon="5.73888">
        <ele>750</ele>
        <time>2022-12-13T11:30:21Z</time>
      </trkpt>
      <trkpt lat="44.80992" lon="5.73894">
        <ele>751</ele>
        <time>2022-12-13T11:30:22Z</time>
      </trkpt>
      <trkpt lat="44.80996" lon="5.73902">
        <ele>752</ele>
        <time>2022-12-13T11:30:23Z</time>
      </trkpt>
      <trkpt lat="44.81001" lon="5.73977">
        <ele>755</ele>
        <time>2022-12-13T11:30:33Z</time>
      </trkpt>
      <trkpt lat="44.81002" lon="5.74018">
        <ele>757</ele>
        <time>2022-12-13T11:30:38Z</time>
      </trkpt>
      <trkpt lat="44.81001" lon="5.74028">
        <ele>758</ele>
        <time>2022-12-13T11:30:39Z</time>
      </trkpt>
      <trkpt lat="44.80988" lon="5.74076">
        <ele>761</ele>
        <time>2022-12-13T11:30:46Z</time>
      </trkpt>
      <trkpt lat="44.80991" lon="5.74093">
        <ele>762</ele>
        <time>2022-12-13T11:30:48Z</time>
      </trkpt>
      <trkpt lat="44.81003" lon="5.74104">
        <ele>763</ele>
        <time>2022-12-13T11:30:50Z</time>
      </trkpt>
      <trkpt lat="44.81078" lon="5.74129">
        <ele>762</ele>
        <time>2022-12-13T11:31:04Z</time>
      </trkpt>
      <trkpt lat="44.81095" lon="5.74138">
        <ele>761</ele>
        <time>2022-12-13T11:31:07Z</time>
      </trkpt>
      <trkpt lat="44.81107" lon="5.74149">
        <ele>760</ele>
        <time>2022-12-13T11:31:10Z</time>
      </trkpt>
      <trkpt lat="44.81117" lon="5.74167">
        <ele>758</ele>
        <time>2022-12-13T11:31:13Z</time>
      </trkpt>
      <trkpt lat="44.81142" lon="5.74259">
        <ele>757</ele>
        <time>2022-12-13T11:31:25Z</time>
      </trkpt>
      <trkpt lat="44.81148" lon="5.74264">
        <ele>756</ele>
        <time>2022-12-13T11:31:26Z</time>
      </trkpt>
      <trkpt lat="44.81153" lon="5.74265">
        <ele>756</ele>
        <time>2022-12-13T11:31:27Z</time>
      </trkpt>
      <trkpt lat="44.81161" lon="5.74264">
        <ele>756</ele>
        <time>2022-12-13T11:31:29Z</time>
      </trkpt>
      <trkpt lat="44.81166" lon="5.74259">
        <ele>755</ele>
        <time>2022-12-13T11:31:30Z</time>
      </trkpt>
      <trkpt lat="44.8117" lon="5.74243">
        <ele>755</ele>
        <time>2022-12-13T11:31:32Z</time>
      </trkpt>
      <trkpt lat="44.8118" lon="5.74188">
        <ele>753</ele>
        <time>2022-12-13T11:31:39Z</time>
      </trkpt>
      <trkpt lat="44.81193" lon="5.7415">
        <ele>751</ele>
        <time>2022-12-13T11:31:45Z</time>
      </trkpt>
      <trkpt lat="44.81206" lon="5.74138">
        <ele>750</ele>
        <time>2022-12-13T11:31:47Z</time>
      </trkpt>
      <trkpt lat="44.81217" lon="5.74135">
        <ele>749</ele>
        <time>2022-12-13T11:31:49Z</time>
      </trkpt>
      <trkpt lat="44.81229" lon="5.74135">
        <ele>747</ele>
        <time>2022-12-13T11:31:51Z</time>
      </trkpt>
      <trkpt lat="44.81238" lon="5.74139">
        <ele>747</ele>
        <time>2022-12-13T11:31:53Z</time>
      </trkpt>
      <trkpt lat="44.81246" lon="5.74145">
        <ele>746</ele>
        <time>2022-12-13T11:31:55Z</time>
      </trkpt>
      <trkpt lat="44.81253" lon="5.74154">
        <ele>746</ele>
        <time>2022-12-13T11:31:56Z</time>
      </trkpt>
      <trkpt lat="44.81267" lon="5.74189">
        <ele>746</ele>
        <time>2022-12-13T11:32:01Z</time>
      </trkpt>
      <trkpt lat="44.81269" lon="5.74199">
        <ele>746</ele>
        <time>2022-12-13T11:32:03Z</time>
      </trkpt>
      <trkpt lat="44.8128" lon="5.74234">
        <ele>747</ele>
        <time>2022-12-13T11:32:08Z</time>
      </trkpt>
      <trkpt lat="44.81284" lon="5.74241">
        <ele>747</ele>
        <time>2022-12-13T11:32:09Z</time>
      </trkpt>
      <trkpt lat="44.81294" lon="5.74245">
        <ele>746</ele>
        <time>2022-12-13T11:32:11Z</time>
      </trkpt>
      <trkpt lat="44.81311" lon="5.74269">
        <ele>747</ele>
        <time>2022-12-13T11:32:15Z</time>
      </trkpt>
      <trkpt lat="44.81333" lon="5.74286">
        <ele>748</ele>
        <time>2022-12-13T11:32:19Z</time>
      </trkpt>
      <trkpt lat="44.81403" lon="5.74332">
        <ele>751</ele>
        <time>2022-12-13T11:32:33Z</time>
      </trkpt>
      <trkpt lat="44.81496" lon="5.74389">
        <ele>753</ele>
        <time>2022-12-13T11:32:51Z</time>
      </trkpt>
      <trkpt lat="44.81579" lon="5.74435">
        <ele>756</ele>
        <time>2022-12-13T11:33:07Z</time>
      </trkpt>
      <trkpt lat="44.81616" lon="5.7446">
        <ele>758</ele>
        <time>2022-12-13T11:33:14Z</time>
      </trkpt>
      <trkpt lat="44.81623" lon="5.74468">
        <ele>758</ele>
        <time>2022-12-13T11:33:16Z</time>
      </trkpt>
      <trkpt lat="44.81628" lon="5.74479">
        <ele>759</ele>
        <time>2022-12-13T11:33:18Z</time>
      </trkpt>
      <trkpt lat="44.81634" lon="5.74497">
        <ele>760</ele>
        <time>2022-12-13T11:33:20Z</time>
      </trkpt>
      <trkpt lat="44.81638" lon="5.74517">
        <ele>761</ele>
        <time>2022-12-13T11:33:23Z</time>
      </trkpt>
      <trkpt lat="44.81658" lon="5.74733">
        <ele>767</ele>
        <time>2022-12-13T11:33:50Z</time>
      </trkpt>
      <trkpt lat="44.8166" lon="5.74748">
        <ele>768</ele>
        <time>2022-12-13T11:33:52Z</time>
      </trkpt>
      <trkpt lat="44.81666" lon="5.74759">
        <ele>768</ele>
        <time>2022-12-13T11:33:54Z</time>
      </trkpt>
      <trkpt lat="44.81669" lon="5.74771">
        <ele>768</ele>
        <time>2022-12-13T11:33:55Z</time>
      </trkpt>
      <trkpt lat="44.81672" lon="5.74915">
        <ele>773</ele>
        <time>2022-12-13T11:34:14Z</time>
      </trkpt>
      <trkpt lat="44.81687" lon="5.75042">
        <ele>777</ele>
        <time>2022-12-13T11:34:30Z</time>
      </trkpt>
      <trkpt lat="44.81691" lon="5.75052">
        <ele>778</ele>
        <time>2022-12-13T11:34:31Z</time>
      </trkpt>
      <trkpt lat="44.8169" lon="5.75052">
        <ele>778</ele>
        <time>2022-12-13T11:34:32Z</time>
      </trkpt>
    </trkseg>
  </trk>
</gpx>